PWSweather.com
Personal Weather Stations
Station Observations
KOHREFORM1
Reform, Ohio, Newark, OH 43055

Reform, OhioNewark, OH 43055

Lat: 40.1502, Lon: -82.2417

Elevation: 1043

Station Type: Davis Vantage Pro 2 Plus

randysweatheronthehill.com

High Low Average
Temperature 85.9°F29.9°C 65.0°F18.3°C 73.5°F23.1°C
Dew Point 74.3°F23.5°C 57.9°F14.4°C 66.9°F19.4°C
Winds 6.0 mph 9.7 kmh Calm Calm 1.0 mph SE1.6 kmh SE
Wind Gusts 11.4 mph18.3 kmh -- 4.0 mph6.4 kmh
Humidity 97% 61% 81%
Pressure 30.20 in1022.7 mb 29.91 in1012.9 mb -
Precipitation 0.16 in4.1 mm - -
Hour Temp Dew Point Humidity Winds Wind Gusts Pressure Precip Precip Rate Daily Precip Total
12:00 AM 66.0°F18.9°C 59.6°F15.3°C 80% Calm Calm -- 29.91 in1012.9 mb 0.00 in0.0 mm 0.00 in0.0 mm 0.00 in0.0 mm
12:02 AM 65.9°F18.8°C 59.5°F15.3°C 80% Calm Calm -- 29.91 in1012.9 mb 0.00 in0.0 mm 0.00 in0.0 mm 0.00 in0.0 mm
12:04 AM 65.9°F18.8°C 58.8°F14.9°C 78% Calm Calm -- 29.91 in1012.9 mb 0.00 in0.0 mm 0.00 in0.0 mm 0.00 in0.0 mm
12:06 AM 65.9°F18.8°C 58.8°F14.9°C 78% Calm Calm -- 29.91 in1012.9 mb 0.00 in0.0 mm 0.00 in0.0 mm 0.00 in0.0 mm
12:08 AM 65.8°F18.8°C 58.4°F14.7°C 77% Calm Calm -- 29.91 in1012.9 mb 0.00 in0.0 mm 0.00 in0.0 mm 0.00 in0.0 mm
12:10 AM 65.8°F18.8°C 58.4°F14.7°C 77% Calm Calm -- 29.91 in1012.9 mb 0.00 in0.0 mm 0.00 in0.0 mm 0.00 in0.0 mm
12:12 AM 65.8°F18.8°C 58.4°F14.7°C 77% Calm Calm -- 29.91 in1012.9 mb 0.00 in0.0 mm 0.00 in0.0 mm 0.00 in0.0 mm
12:14 AM 65.7°F18.7°C 58.3°F14.6°C 77% Calm Calm -- 29.91 in1012.9 mb 0.00 in0.0 mm 0.00 in0.0 mm 0.00 in0.0 mm
12:16 AM 65.7°F18.7°C 58.3°F14.6°C 77% Calm Calm -- 29.91 in1012.9 mb 0.00 in0.0 mm 0.00 in0.0 mm 0.00 in0.0 mm
12:18 AM 65.7°F18.7°C 58.3°F14.6°C 77% Calm Calm -- 29.91 in1012.9 mb 0.00 in0.0 mm 0.00 in0.0 mm 0.00 in0.0 mm
12:20 AM 65.7°F18.7°C 58.3°F14.6°C 77% Calm Calm -- 29.91 in1012.9 mb 0.00 in0.0 mm 0.00 in0.0 mm 0.00 in0.0 mm
12:22 AM 65.6°F18.7°C 58.2°F14.6°C 77% Calm Calm -- 29.91 in1012.9 mb 0.00 in0.0 mm 0.00 in0.0 mm 0.00 in0.0 mm
12:24 AM 65.5°F18.6°C 58.1°F14.5°C 77% Calm Calm -- 29.92 in1013.2 mb 0.00 in0.0 mm 0.00 in0.0 mm 0.00 in0.0 mm
12:26 AM 65.5°F18.6°C 58.1°F14.5°C 77% Calm Calm -- 29.91 in1012.9 mb 0.00 in0.0 mm 0.00 in0.0 mm 0.00 in0.0 mm
12:28 AM 65.5°F18.6°C 58.1°F14.5°C 77% Calm Calm -- 29.92 in1013.2 mb 0.00 in0.0 mm 0.00 in0.0 mm 0.00 in0.0 mm
12:30 AM 65.6°F18.7°C 58.2°F14.6°C 77% Calm Calm -- 29.91 in1012.9 mb 0.00 in0.0 mm 0.00 in0.0 mm 0.00 in0.0 mm
12:32 AM 65.7°F18.7°C 57.9°F14.4°C 76% Calm Calm -- 29.91 in1012.9 mb 0.00 in0.0 mm 0.00 in0.0 mm 0.00 in0.0 mm
12:34 AM 65.8°F18.8°C 58.4°F14.7°C 77% Calm Calm -- 29.92 in1013.2 mb 0.00 in0.0 mm 0.00 in0.0 mm 0.00 in0.0 mm
12:36 AM 66.0°F18.9°C 58.2°F14.6°C 76% Calm Calm -- 29.92 in1013.2 mb 0.00 in0.0 mm 0.00 in0.0 mm 0.00 in0.0 mm
12:38 AM 66.1°F18.9°C 58.3°F14.6°C 76% Calm Calm 1.1 mph1.8 kmh 29.91 in1012.9 mb 0.00 in0.0 mm 0.00 in0.0 mm 0.00 in0.0 mm
12:40 AM 66.2°F19.0°C 58.4°F14.7°C 76% Calm Calm -- 29.92 in1013.2 mb 0.00 in0.0 mm 0.00 in0.0 mm 0.00 in0.0 mm
12:42 AM 66.2°F19.0°C 58.4°F14.7°C 76% Calm Calm -- 29.91 in1012.9 mb 0.00 in0.0 mm 0.00 in0.0 mm 0.00 in0.0 mm
12:44 AM 66.2°F19.0°C 58.4°F14.7°C 76% Calm Calm 1.1 mph1.8 kmh 29.91 in1012.9 mb 0.00 in0.0 mm 0.00 in0.0 mm 0.00 in0.0 mm
12:46 AM 66.3°F19.1°C 58.5°F14.7°C 76% Calm Calm -- 29.92 in1013.2 mb 0.00 in0.0 mm 0.00 in0.0 mm 0.00 in0.0 mm
12:48 AM 66.3°F19.1°C 58.5°F14.7°C 76% Calm Calm 1.1 mph1.8 kmh 29.92 in1013.2 mb 0.00 in0.0 mm 0.00 in0.0 mm 0.00 in0.0 mm
12:50 AM 66.3°F19.1°C 58.5°F14.7°C 76% Calm Calm -- 29.92 in1013.2 mb 0.00 in0.0 mm 0.00 in0.0 mm 0.00 in0.0 mm
12:52 AM 66.3°F19.1°C 58.5°F14.7°C 76% Calm Calm 1.1 mph1.8 kmh 29.92 in1013.2 mb 0.00 in0.0 mm 0.00 in0.0 mm 0.00 in0.0 mm
12:54 AM 66.3°F19.1°C 58.5°F14.7°C 76% Calm Calm -- 29.92 in1013.2 mb 0.00 in0.0 mm 0.00 in0.0 mm 0.00 in0.0 mm
12:56 AM 66.3°F19.1°C 58.5°F14.7°C 76% Calm Calm -- 29.93 in1013.5 mb 0.00 in0.0 mm 0.00 in0.0 mm 0.00 in0.0 mm
12:58 AM 66.3°F19.1°C 58.5°F14.7°C 76% Calm Calm -- 29.92 in1013.2 mb 0.00 in0.0 mm 0.00 in0.0 mm 0.00 in0.0 mm
01:00 AM 66.3°F19.1°C 58.5°F14.7°C 76% Calm Calm -- 29.93 in1013.5 mb 0.00 in0.0 mm 0.00 in0.0 mm 0.00 in0.0 mm
01:02 AM 66.2°F19.0°C 58.8°F14.9°C 77% Calm Calm -- 29.93 in1013.5 mb 0.00 in0.0 mm 0.00 in0.0 mm 0.00 in0.0 mm
01:04 AM 66.2°F19.0°C 59.1°F15.1°C 78% Calm Calm -- 29.93 in1013.5 mb 0.00 in0.0 mm 0.00 in0.0 mm 0.00 in0.0 mm
01:06 AM 66.1°F18.9°C 59.0°F15.0°C 78% Calm Calm -- 29.93 in1013.5 mb 0.00 in0.0 mm 0.00 in0.0 mm 0.00 in0.0 mm
01:08 AM 66.1°F18.9°C 59.0°F15.0°C 78% Calm Calm -- 29.94 in1013.9 mb 0.00 in0.0 mm 0.00 in0.0 mm 0.00 in0.0 mm
01:10 AM 66.0°F18.9°C 58.6°F14.8°C 77% Calm Calm -- 29.94 in1013.9 mb 0.00 in0.0 mm 0.00 in0.0 mm 0.00 in0.0 mm
01:12 AM 65.9°F18.8°C 58.5°F14.7°C 77% Calm Calm -- 29.94 in1013.9 mb 0.00 in0.0 mm 0.00 in0.0 mm 0.00 in0.0 mm
01:14 AM 65.9°F18.8°C 58.5°F14.7°C 77% Calm Calm -- 29.94 in1013.9 mb 0.00 in0.0 mm 0.00 in0.0 mm 0.00 in0.0 mm
01:16 AM 65.8°F18.8°C 58.4°F14.7°C 77% Calm Calm -- 29.94 in1013.9 mb 0.00 in0.0 mm 0.00 in0.0 mm 0.00 in0.0 mm
01:18 AM 65.8°F18.8°C 58.4°F14.7°C 77% Calm Calm -- 29.94 in1013.9 mb 0.00 in0.0 mm 0.00 in0.0 mm 0.00 in0.0 mm
01:20 AM 65.9°F18.8°C 58.5°F14.7°C 77% Calm Calm -- 29.94 in1013.9 mb 0.00 in0.0 mm 0.00 in0.0 mm 0.00 in0.0 mm
01:22 AM 65.8°F18.8°C 58.4°F14.7°C 77% Calm Calm -- 29.94 in1013.9 mb 0.00 in0.0 mm 0.00 in0.0 mm 0.00 in0.0 mm
01:24 AM 65.8°F18.8°C 58.4°F14.7°C 77% Calm Calm -- 29.95 in1014.2 mb 0.00 in0.0 mm 0.00 in0.0 mm 0.00 in0.0 mm
01:26 AM 65.9°F18.8°C 58.5°F14.7°C 77% Calm Calm -- 29.94 in1013.9 mb 0.00 in0.0 mm 0.00 in0.0 mm 0.00 in0.0 mm
01:28 AM 65.9°F18.8°C 58.5°F14.7°C 77% Calm Calm -- 29.94 in1013.9 mb 0.00 in0.0 mm 0.00 in0.0 mm 0.00 in0.0 mm
01:30 AM 65.9°F18.8°C 58.5°F14.7°C 77% Calm Calm -- 29.94 in1013.9 mb 0.00 in0.0 mm 0.00 in0.0 mm 0.00 in0.0 mm
01:32 AM 65.9°F18.8°C 58.1°F14.5°C 76% Calm Calm -- 29.94 in1013.9 mb 0.00 in0.0 mm 0.00 in0.0 mm 0.00 in0.0 mm
01:34 AM 65.9°F18.8°C 58.1°F14.5°C 76% Calm Calm -- 29.95 in1014.2 mb 0.00 in0.0 mm 0.00 in0.0 mm 0.00 in0.0 mm
01:36 AM 65.9°F18.8°C 58.5°F14.7°C 77% Calm Calm -- 29.95 in1014.2 mb 0.00 in0.0 mm 0.00 in0.0 mm 0.00 in0.0 mm
01:38 AM 65.9°F18.8°C 58.1°F14.5°C 76% Calm Calm -- 29.95 in1014.2 mb 0.00 in0.0 mm 0.00 in0.0 mm 0.00 in0.0 mm
01:40 AM 66.0°F18.9°C 58.2°F14.6°C 76% Calm Calm -- 29.95 in1014.2 mb 0.00 in0.0 mm 0.00 in0.0 mm 0.00 in0.0 mm
01:42 AM 66.0°F18.9°C 58.2°F14.6°C 76% Calm Calm -- 29.95 in1014.2 mb 0.00 in0.0 mm 0.00 in0.0 mm 0.00 in0.0 mm
01:44 AM 66.0°F18.9°C 58.6°F14.8°C 77% Calm Calm -- 29.95 in1014.2 mb 0.00 in0.0 mm 0.00 in0.0 mm 0.00 in0.0 mm
01:46 AM 66.0°F18.9°C 58.6°F14.8°C 77% Calm Calm -- 29.95 in1014.2 mb 0.00 in0.0 mm 0.00 in0.0 mm 0.00 in0.0 mm
01:48 AM 66.0°F18.9°C 58.6°F14.8°C 77% Calm Calm -- 29.95 in1014.2 mb 0.00 in0.0 mm 0.00 in0.0 mm 0.00 in0.0 mm
01:50 AM 65.9°F18.8°C 59.2°F15.1°C 79% Calm Calm -- 29.95 in1014.2 mb 0.00 in0.0 mm 0.00 in0.0 mm 0.00 in0.0 mm
01:52 AM 65.9°F18.8°C 59.5°F15.3°C 80% Calm Calm -- 29.95 in1014.2 mb 0.00 in0.0 mm 0.00 in0.0 mm 0.00 in0.0 mm
01:54 AM 65.8°F18.8°C 59.1°F15.1°C 79% Calm Calm -- 29.95 in1014.2 mb 0.00 in0.0 mm 0.00 in0.0 mm 0.00 in0.0 mm
01:56 AM 65.6°F18.7°C 59.3°F15.2°C 80% Calm Calm -- 29.95 in1014.2 mb 0.00 in0.0 mm 0.00 in0.0 mm 0.00 in0.0 mm
01:58 AM 65.6°F18.7°C 59.3°F15.2°C 80% Calm Calm -- 29.95 in1014.2 mb 0.00 in0.0 mm 0.00 in0.0 mm 0.00 in0.0 mm
02:00 AM 65.4°F18.6°C 58.7°F14.8°C 79% Calm Calm -- 29.95 in1014.2 mb 0.00 in0.0 mm 0.00 in0.0 mm 0.00 in0.0 mm
02:02 AM 65.3°F18.5°C 58.6°F14.8°C 79% Calm Calm -- 29.95 in1014.2 mb 0.00 in0.0 mm 0.00 in0.0 mm 0.00 in0.0 mm
02:04 AM 65.2°F18.4°C 58.5°F14.7°C 79% Calm Calm -- 29.95 in1014.2 mb 0.00 in0.0 mm 0.00 in0.0 mm 0.00 in0.0 mm
02:06 AM 65.1°F18.4°C 58.4°F14.7°C 79% Calm Calm -- 29.95 in1014.2 mb 0.00 in0.0 mm 0.00 in0.0 mm 0.00 in0.0 mm
02:08 AM 65.1°F18.4°C 58.4°F14.7°C 79% Calm Calm -- 29.95 in1014.2 mb 0.00 in0.0 mm 0.00 in0.0 mm 0.00 in0.0 mm
02:10 AM 65.1°F18.4°C 58.4°F14.7°C 79% Calm Calm -- 29.95 in1014.2 mb 0.00 in0.0 mm 0.00 in0.0 mm 0.00 in0.0 mm
02:12 AM 65.0°F18.3°C 58.3°F14.6°C 79% Calm Calm -- 29.95 in1014.2 mb 0.00 in0.0 mm 0.00 in0.0 mm 0.00 in0.0 mm
02:14 AM 65.0°F18.3°C 58.7°F14.8°C 80% Calm Calm 1.1 mph1.8 kmh 29.95 in1014.2 mb 0.00 in0.0 mm 0.00 in0.0 mm 0.00 in0.0 mm
02:16 AM 65.1°F18.4°C 59.1°F15.1°C 81% Calm Calm -- 29.95 in1014.2 mb 0.00 in0.0 mm 0.00 in0.0 mm 0.00 in0.0 mm
02:18 AM 65.1°F18.4°C 58.8°F14.9°C 80% Calm Calm -- 29.95 in1014.2 mb 0.00 in0.0 mm 0.00 in0.0 mm 0.00 in0.0 mm
02:20 AM 65.0°F18.3°C 58.7°F14.8°C 80% Calm Calm -- 29.95 in1014.2 mb 0.00 in0.0 mm 0.00 in0.0 mm 0.00 in0.0 mm
02:22 AM 65.1°F18.4°C 58.4°F14.7°C 79% Calm Calm -- 29.95 in1014.2 mb 0.00 in0.0 mm 0.00 in0.0 mm 0.00 in0.0 mm
02:24 AM 65.1°F18.4°C 58.4°F14.7°C 79% Calm Calm 1.1 mph1.8 kmh 29.95 in1014.2 mb 0.00 in0.0 mm 0.00 in0.0 mm 0.00 in0.0 mm
02:26 AM 65.2°F18.4°C 58.5°F14.7°C 79% Calm Calm -- 29.95 in1014.2 mb 0.00 in0.0 mm 0.00 in0.0 mm 0.00 in0.0 mm
02:28 AM 65.3°F18.5°C 58.6°F14.8°C 79% Calm Calm -- 29.95 in1014.2 mb 0.00 in0.0 mm 0.00 in0.0 mm 0.00 in0.0 mm
02:30 AM 65.4°F18.6°C 58.7°F14.8°C 79% Calm Calm -- 29.95 in1014.2 mb 0.00 in0.0 mm 0.00 in0.0 mm 0.00 in0.0 mm
02:32 AM 65.5°F18.6°C 58.8°F14.9°C 79% Calm Calm -- 29.96 in1014.6 mb 0.00 in0.0 mm 0.00 in0.0 mm 0.00 in0.0 mm
02:34 AM 65.6°F18.7°C 58.9°F14.9°C 79% Calm Calm -- 29.96 in1014.6 mb 0.00 in0.0 mm 0.00 in0.0 mm 0.00 in0.0 mm
02:36 AM 65.7°F18.7°C 59.0°F15.0°C 79% Calm Calm 1.1 mph1.8 kmh 29.96 in1014.6 mb 0.00 in0.0 mm 0.00 in0.0 mm 0.00 in0.0 mm
02:38 AM 65.8°F18.8°C 59.1°F15.1°C 79% Calm Calm -- 29.96 in1014.6 mb 0.00 in0.0 mm 0.00 in0.0 mm 0.00 in0.0 mm
02:40 AM 65.8°F18.8°C 59.5°F15.3°C 80% Calm Calm -- 29.96 in1014.6 mb 0.00 in0.0 mm 0.00 in0.0 mm 0.00 in0.0 mm
02:42 AM 65.9°F18.8°C 59.2°F15.1°C 79% Calm Calm -- 29.96 in1014.6 mb 0.00 in0.0 mm 0.00 in0.0 mm 0.00 in0.0 mm
02:44 AM 65.9°F18.8°C 59.2°F15.1°C 79% Calm Calm 1.1 mph1.8 kmh 29.96 in1014.6 mb 0.00 in0.0 mm 0.00 in0.0 mm 0.00 in0.0 mm
02:46 AM 66.0°F18.9°C 59.3°F15.2°C 79% Calm Calm -- 29.96 in1014.6 mb 0.00 in0.0 mm 0.00 in0.0 mm 0.00 in0.0 mm
02:48 AM 66.1°F18.9°C 59.4°F15.2°C 79% Calm Calm -- 29.96 in1014.6 mb 0.00 in0.0 mm 0.00 in0.0 mm 0.00 in0.0 mm
02:50 AM 66.2°F19.0°C 59.5°F15.3°C 79% Calm Calm -- 29.96 in1014.6 mb 0.00 in0.0 mm 0.00 in0.0 mm 0.00 in0.0 mm
02:52 AM 66.2°F19.0°C 59.5°F15.3°C 79% Calm Calm -- 29.96 in1014.6 mb 0.00 in0.0 mm 0.00 in0.0 mm 0.00 in0.0 mm
02:54 AM 66.3°F19.1°C 59.6°F15.3°C 79% Calm Calm -- 29.96 in1014.6 mb 0.00 in0.0 mm 0.00 in0.0 mm 0.00 in0.0 mm
02:56 AM 66.4°F19.1°C 59.7°F15.4°C 79% Calm Calm -- 29.96 in1014.6 mb 0.00 in0.0 mm 0.00 in0.0 mm 0.00 in0.0 mm
02:58 AM 66.4°F19.1°C 59.7°F15.4°C 79% Calm Calm 3.4 mph5.5 kmh 29.96 in1014.6 mb 0.00 in0.0 mm 0.00 in0.0 mm 0.00 in0.0 mm
03:00 AM 66.5°F19.2°C 59.4°F15.2°C 78% Calm Calm -- 29.96 in1014.6 mb 0.00 in0.0 mm 0.00 in0.0 mm 0.00 in0.0 mm
03:02 AM 66.6°F19.2°C 59.5°F15.3°C 78% Calm Calm -- 29.96 in1014.6 mb 0.00 in0.0 mm 0.00 in0.0 mm 0.00 in0.0 mm
03:04 AM 66.7°F19.3°C 59.6°F15.3°C 78% Calm Calm 1.1 mph1.8 kmh 29.96 in1014.6 mb 0.00 in0.0 mm 0.00 in0.0 mm 0.00 in0.0 mm
03:06 AM 66.7°F19.3°C 59.6°F15.3°C 78% Calm Calm -- 29.96 in1014.6 mb 0.00 in0.0 mm 0.00 in0.0 mm 0.00 in0.0 mm
03:08 AM 66.8°F19.3°C 59.7°F15.4°C 78% Calm Calm 1.1 mph1.8 kmh 29.96 in1014.6 mb 0.00 in0.0 mm 0.00 in0.0 mm 0.00 in0.0 mm
03:10 AM 66.8°F19.3°C 59.3°F15.2°C 77% Calm Calm -- 29.96 in1014.6 mb 0.00 in0.0 mm 0.00 in0.0 mm 0.00 in0.0 mm
03:12 AM 66.9°F19.4°C 59.4°F15.2°C 77% Calm Calm -- 29.96 in1014.6 mb 0.00 in0.0 mm 0.00 in0.0 mm 0.00 in0.0 mm
03:14 AM 67.0°F19.4°C 59.5°F15.3°C 77% Calm Calm 1.1 mph1.8 kmh 29.96 in1014.6 mb 0.00 in0.0 mm 0.00 in0.0 mm 0.00 in0.0 mm
03:16 AM 67.0°F19.4°C 59.5°F15.3°C 77% Calm Calm 1.1 mph1.8 kmh 29.96 in1014.6 mb 0.00 in0.0 mm 0.00 in0.0 mm 0.00 in0.0 mm
03:18 AM 67.2°F19.6°C 59.4°F15.2°C 76% Calm Calm 1.1 mph1.8 kmh 29.96 in1014.6 mb 0.00 in0.0 mm 0.00 in0.0 mm 0.00 in0.0 mm
03:20 AM 67.2°F19.6°C 59.4°F15.2°C 76% Calm Calm 1.1 mph1.8 kmh 29.96 in1014.6 mb 0.00 in0.0 mm 0.00 in0.0 mm 0.00 in0.0 mm
03:22 AM 67.4°F19.7°C 59.9°F15.5°C 77% Calm Calm -- 29.96 in1014.6 mb 0.00 in0.0 mm 0.00 in0.0 mm 0.00 in0.0 mm
03:24 AM 67.4°F19.7°C 59.9°F15.5°C 77% Calm Calm -- 29.96 in1014.6 mb 0.00 in0.0 mm 0.00 in0.0 mm 0.00 in0.0 mm
03:26 AM 67.5°F19.7°C 59.7°F15.4°C 76% Calm Calm -- 29.96 in1014.6 mb 0.00 in0.0 mm 0.00 in0.0 mm 0.00 in0.0 mm
03:28 AM 67.5°F19.7°C 60.0°F15.6°C 77% Calm Calm 1.1 mph1.8 kmh 29.96 in1014.6 mb 0.00 in0.0 mm 0.00 in0.0 mm 0.00 in0.0 mm
03:30 AM 67.5°F19.7°C 60.0°F15.6°C 77% Calm Calm -- 29.96 in1014.6 mb 0.00 in0.0 mm 0.00 in0.0 mm 0.00 in0.0 mm
03:32 AM 67.6°F19.8°C 60.1°F15.6°C 77% Calm Calm 1.1 mph1.8 kmh 29.96 in1014.6 mb 0.00 in0.0 mm 0.00 in0.0 mm 0.00 in0.0 mm
03:34 AM 67.6°F19.8°C 60.1°F15.6°C 77% Calm Calm -- 29.95 in1014.2 mb 0.00 in0.0 mm 0.00 in0.0 mm 0.00 in0.0 mm
03:36 AM 67.7°F19.8°C 60.2°F15.7°C 77% Calm Calm -- 29.95 in1014.2 mb 0.00 in0.0 mm 0.00 in0.0 mm 0.00 in0.0 mm
03:38 AM 67.7°F19.8°C 59.9°F15.5°C 76% Calm Calm -- 29.95 in1014.2 mb 0.00 in0.0 mm 0.00 in0.0 mm 0.00 in0.0 mm
03:40 AM 67.7°F19.8°C 59.9°F15.5°C 76% Calm Calm -- 29.95 in1014.2 mb 0.00 in0.0 mm 0.00 in0.0 mm 0.00 in0.0 mm
03:42 AM 67.8°F19.9°C 59.9°F15.5°C 76% Calm Calm 1.1 mph1.8 kmh 29.95 in1014.2 mb 0.00 in0.0 mm 0.00 in0.0 mm 0.00 in0.0 mm
03:44 AM 67.8°F19.9°C 60.3°F15.7°C 77% Calm Calm 1.1 mph1.8 kmh 29.95 in1014.2 mb 0.00 in0.0 mm 0.00 in0.0 mm 0.00 in0.0 mm
03:46 AM 67.9°F19.9°C 60.0°F15.6°C 76% Calm Calm 1.1 mph1.8 kmh 29.95 in1014.2 mb 0.00 in0.0 mm 0.00 in0.0 mm 0.00 in0.0 mm
03:48 AM 67.9°F19.9°C 60.0°F15.6°C 76% Calm Calm -- 29.95 in1014.2 mb 0.00 in0.0 mm 0.00 in0.0 mm 0.00 in0.0 mm
03:50 AM 67.9°F19.9°C 60.0°F15.6°C 76% Calm Calm -- 29.95 in1014.2 mb 0.00 in0.0 mm 0.00 in0.0 mm 0.00 in0.0 mm
03:52 AM 68.0°F20.0°C 60.1°F15.6°C 76% Calm Calm 1.1 mph1.8 kmh 29.96 in1014.6 mb 0.00 in0.0 mm 0.00 in0.0 mm 0.00 in0.0 mm
03:54 AM 68.0°F20.0°C 60.1°F15.6°C 76% Calm Calm -- 29.95 in1014.2 mb 0.00 in0.0 mm 0.00 in0.0 mm 0.00 in0.0 mm
03:56 AM 68.1°F20.1°C 60.6°F15.9°C 77% Calm Calm -- 29.95 in1014.2 mb 0.00 in0.0 mm 0.00 in0.0 mm 0.00 in0.0 mm
03:58 AM 68.1°F20.1°C 61.0°F16.1°C 78% Calm Calm -- 29.95 in1014.2 mb 0.00 in0.0 mm 0.00 in0.0 mm 0.00 in0.0 mm
04:00 AM 68.1°F20.1°C 61.0°F16.1°C 78% Calm Calm -- 29.95 in1014.2 mb 0.00 in0.0 mm 0.00 in0.0 mm 0.00 in0.0 mm
04:02 AM 68.1°F20.1°C 60.6°F15.9°C 77% Calm Calm 1.1 mph1.8 kmh 29.96 in1014.6 mb 0.00 in0.0 mm 0.00 in0.0 mm 0.00 in0.0 mm
04:04 AM 68.2°F20.1°C 60.7°F15.9°C 77% Calm Calm 1.1 mph1.8 kmh 29.96 in1014.6 mb 0.00 in0.0 mm 0.00 in0.0 mm 0.00 in0.0 mm
04:06 AM 68.2°F20.1°C 61.1°F16.2°C 78% 2.0 mph 3.2 kmh 2.3 mph3.7 kmh 29.97 in1014.9 mb 0.00 in0.0 mm 0.00 in0.0 mm 0.00 in0.0 mm
04:08 AM 68.1°F20.1°C 61.7°F16.5°C 80% 1.0 mph ENE1.6 kmh ENE 6.8 mph10.9 kmh 29.99 in1015.6 mb 0.00 in0.0 mm 0.00 in0.0 mm 0.00 in0.0 mm
04:10 AM 68.2°F20.1°C 61.8°F16.6°C 80% 2.0 mph NNW3.2 kmh NNW 6.8 mph10.9 kmh 29.98 in1015.2 mb 0.00 in0.0 mm 0.00 in0.0 mm 0.00 in0.0 mm
04:12 AM 68.4°F20.2°C 62.3°F16.8°C 81% 1.0 mph N1.6 kmh N 6.8 mph10.9 kmh 29.99 in1015.6 mb 0.00 in0.0 mm 0.00 in0.0 mm 0.00 in0.0 mm
04:14 AM 68.8°F20.4°C 63.4°F17.4°C 83% Calm Calm 6.8 mph10.9 kmh 29.99 in1015.6 mb 0.00 in0.0 mm 0.00 in0.0 mm 0.00 in0.0 mm
04:16 AM 68.9°F20.5°C 64.2°F17.9°C 85% 2.0 mph NW3.2 kmh NW 6.8 mph10.9 kmh 30.00 in1015.9 mb 0.98 in24.9 mm 29.40 in746.8 mm 0.01 in0.3 mm
04:18 AM 69.0°F20.6°C 64.6°F18.1°C 86% 2.0 mph N3.2 kmh N 6.8 mph10.9 kmh 29.99 in1015.6 mb 1.16 in29.5 mm 5.40 in137.2 mm 0.04 in1.0 mm
04:20 AM 68.9°F20.5°C 64.9°F18.3°C 87% 2.0 mph 3.2 kmh 6.8 mph10.9 kmh 29.99 in1015.6 mb 0.95 in24.1 mm 0.00 in0.0 mm 0.07 in1.8 mm
04:22 AM 68.6°F20.3°C 64.9°F18.3°C 88% 4.0 mph ENE6.4 kmh ENE 6.8 mph10.9 kmh 29.99 in1015.6 mb 0.36 in9.1 mm 0.00 in0.0 mm 0.10 in2.5 mm
04:24 AM 68.5°F20.3°C 65.1°F18.4°C 89% 2.0 mph N3.2 kmh N 6.8 mph10.9 kmh 29.98 in1015.2 mb 0.20 in5.1 mm 0.00 in0.0 mm 0.10 in2.5 mm
04:26 AM 68.3°F20.2°C 64.9°F18.3°C 89% Calm Calm 6.8 mph10.9 kmh 29.99 in1015.6 mb 0.20 in5.1 mm 0.00 in0.0 mm 0.11 in2.8 mm
04:28 AM 68.1°F20.1°C 65.0°F18.3°C 90% 1.0 mph E1.6 kmh E 4.6 mph7.4 kmh 29.99 in1015.6 mb 0.19 in4.8 mm 0.00 in0.0 mm 0.12 in3.0 mm
04:30 AM 68.0°F20.0°C 65.0°F18.3°C 90% 3.0 mph 4.8 kmh 4.6 mph7.4 kmh 30.00 in1015.9 mb 0.17 in4.3 mm 0.00 in0.0 mm 0.12 in3.0 mm
04:32 AM 67.9°F19.9°C 65.2°F18.4°C 91% 1.0 mph 1.6 kmh 4.6 mph7.4 kmh 30.00 in1015.9 mb 0.11 in2.8 mm 0.00 in0.0 mm 0.12 in3.0 mm
04:34 AM 67.8°F19.9°C 65.1°F18.4°C 91% 1.0 mph 1.6 kmh 4.6 mph7.4 kmh 30.00 in1015.9 mb 0.08 in2.0 mm 0.00 in0.0 mm 0.12 in3.0 mm
04:36 AM 67.7°F19.8°C 65.3°F18.5°C 92% Calm Calm 4.6 mph7.4 kmh 30.00 in1015.9 mb 0.06 in1.5 mm 0.00 in0.0 mm 0.12 in3.0 mm
04:38 AM 67.7°F19.8°C 65.3°F18.5°C 92% 1.0 mph N1.6 kmh N 3.4 mph5.5 kmh 30.00 in1015.9 mb 0.06 in1.5 mm 0.00 in0.0 mm 0.12 in3.0 mm
04:40 AM 67.5°F19.7°C 65.1°F18.4°C 92% Calm Calm 3.4 mph5.5 kmh 30.01 in1016.3 mb 0.06 in1.5 mm 0.00 in0.0 mm 0.13 in3.3 mm
04:42 AM 67.5°F19.7°C 65.1°F18.4°C 92% Calm Calm 3.4 mph5.5 kmh 30.02 in1016.6 mb 0.06 in1.5 mm 0.00 in0.0 mm 0.13 in3.3 mm
04:44 AM 67.5°F19.7°C 65.4°F18.6°C 93% Calm Calm 3.4 mph5.5 kmh 30.02 in1016.6 mb 0.06 in1.5 mm 0.00 in0.0 mm 0.13 in3.3 mm
04:46 AM 67.4°F19.7°C 65.3°F18.5°C 93% Calm Calm 3.4 mph5.5 kmh 30.02 in1016.6 mb 0.06 in1.5 mm 0.00 in0.0 mm 0.13 in3.3 mm
04:48 AM 67.4°F19.7°C 65.3°F18.5°C 93% Calm Calm 2.3 mph3.7 kmh 30.02 in1016.6 mb 0.06 in1.5 mm 0.00 in0.0 mm 0.13 in3.3 mm
04:50 AM 67.4°F19.7°C 65.3°F18.5°C 93% Calm Calm 2.3 mph3.7 kmh 30.02 in1016.6 mb 0.05 in1.3 mm 0.00 in0.0 mm 0.14 in3.6 mm
04:52 AM 67.3°F19.6°C 65.2°F18.4°C 93% 1.0 mph NNE1.6 kmh NNE 2.3 mph3.7 kmh 30.01 in1016.3 mb 0.05 in1.3 mm 0.00 in0.0 mm 0.14 in3.6 mm
04:54 AM 67.3°F19.6°C 65.2°F18.4°C 93% 2.0 mph N3.2 kmh N 4.6 mph7.4 kmh 30.01 in1016.3 mb 0.05 in1.3 mm 0.00 in0.0 mm 0.14 in3.6 mm
04:56 AM 67.3°F19.6°C 65.2°F18.4°C 93% Calm Calm 4.6 mph7.4 kmh 30.00 in1015.9 mb 0.05 in1.3 mm 0.00 in0.0 mm 0.14 in3.6 mm
04:58 AM 67.2°F19.6°C 65.4°F18.6°C 94% Calm Calm 4.6 mph7.4 kmh 30.00 in1015.9 mb 0.05 in1.3 mm 0.00 in0.0 mm 0.14 in3.6 mm
05:00 AM 67.2°F19.6°C 65.4°F18.6°C 94% Calm Calm 4.6 mph7.4 kmh 30.01 in1016.3 mb 0.05 in1.3 mm 0.00 in0.0 mm 0.14 in3.6 mm
05:02 AM 67.2°F19.6°C 65.4°F18.6°C 94% Calm Calm 4.6 mph7.4 kmh 30.01 in1016.3 mb 0.05 in1.3 mm 0.00 in0.0 mm 0.14 in3.6 mm
05:04 AM 67.2°F19.6°C 65.4°F18.6°C 94% Calm Calm -- 30.01 in1016.3 mb 0.04 in1.0 mm 0.00 in0.0 mm 0.14 in3.6 mm
05:06 AM 67.2°F19.6°C 65.4°F18.6°C 94% Calm Calm -- 30.00 in1015.9 mb 0.04 in1.0 mm 0.00 in0.0 mm 0.14 in3.6 mm
05:08 AM 67.2°F19.6°C 65.4°F18.6°C 94% Calm Calm 1.1 mph1.8 kmh 30.00 in1015.9 mb 0.00 in0.0 mm 0.00 in0.0 mm 0.14 in3.6 mm
05:10 AM 67.2°F19.6°C 65.4°F18.6°C 94% Calm Calm 2.3 mph3.7 kmh 30.00 in1015.9 mb 0.00 in0.0 mm 0.00 in0.0 mm 0.15 in3.8 mm
05:12 AM 67.2°F19.6°C 65.4°F18.6°C 94% Calm Calm -- 30.00 in1015.9 mb 0.00 in0.0 mm 0.00 in0.0 mm 0.15 in3.8 mm
05:14 AM 67.1°F19.5°C 65.3°F18.5°C 94% Calm Calm -- 30.00 in1015.9 mb 0.00 in0.0 mm 0.00 in0.0 mm 0.15 in3.8 mm
05:16 AM 67.1°F19.5°C 65.3°F18.5°C 94% Calm Calm -- 30.00 in1015.9 mb 0.00 in0.0 mm 0.00 in0.0 mm 0.15 in3.8 mm
05:18 AM 67.1°F19.5°C 65.3°F18.5°C 94% 1.0 mph E1.6 kmh E 2.3 mph3.7 kmh 30.00 in1015.9 mb 0.00 in0.0 mm 0.00 in0.0 mm 0.15 in3.8 mm
05:20 AM 67.1°F19.5°C 65.3°F18.5°C 94% Calm Calm 2.3 mph3.7 kmh 30.00 in1015.9 mb 0.00 in0.0 mm 0.00 in0.0 mm 0.15 in3.8 mm
05:22 AM 67.1°F19.5°C 65.3°F18.5°C 94% Calm Calm 2.3 mph3.7 kmh 30.00 in1015.9 mb 0.00 in0.0 mm 0.00 in0.0 mm 0.15 in3.8 mm
05:24 AM 67.0°F19.4°C 65.2°F18.4°C 94% Calm Calm -- 30.00 in1015.9 mb 0.00 in0.0 mm 0.00 in0.0 mm 0.15 in3.8 mm
05:26 AM 67.0°F19.4°C 65.2°F18.4°C 94% 1.0 mph E1.6 kmh E 1.1 mph1.8 kmh 30.00 in1015.9 mb 0.00 in0.0 mm 0.00 in0.0 mm 0.15 in3.8 mm
05:28 AM 67.0°F19.4°C 65.5°F18.6°C 95% Calm Calm 1.1 mph1.8 kmh 30.01 in1016.3 mb 0.00 in0.0 mm 0.00 in0.0 mm 0.15 in3.8 mm
05:30 AM 67.0°F19.4°C 65.5°F18.6°C 95% 1.0 mph E1.6 kmh E 1.1 mph1.8 kmh 30.01 in1016.3 mb 0.00 in0.0 mm 0.00 in0.0 mm 0.15 in3.8 mm
05:32 AM 67.0°F19.4°C 65.5°F18.6°C 95% Calm Calm 1.1 mph1.8 kmh 30.00 in1015.9 mb 0.00 in0.0 mm 0.00 in0.0 mm 0.15 in3.8 mm
05:34 AM 66.9°F19.4°C 65.4°F18.6°C 95% Calm Calm 1.1 mph1.8 kmh 30.00 in1015.9 mb 0.00 in0.0 mm 0.00 in0.0 mm 0.15 in3.8 mm
05:36 AM 66.9°F19.4°C 65.4°F18.6°C 95% Calm Calm -- 30.00 in1015.9 mb 0.00 in0.0 mm 0.00 in0.0 mm 0.15 in3.8 mm
05:38 AM 66.9°F19.4°C 65.4°F18.6°C 95% Calm Calm -- 30.00 in1015.9 mb 0.00 in0.0 mm 0.00 in0.0 mm 0.15 in3.8 mm
05:40 AM 66.9°F19.4°C 65.4°F18.6°C 95% Calm Calm 1.1 mph1.8 kmh 30.00 in1015.9 mb 0.00 in0.0 mm 0.00 in0.0 mm 0.15 in3.8 mm
05:42 AM 66.8°F19.3°C 65.3°F18.5°C 95% Calm Calm -- 30.00 in1015.9 mb 0.00 in0.0 mm 0.00 in0.0 mm 0.15 in3.8 mm
05:44 AM 66.8°F19.3°C 65.3°F18.5°C 95% Calm Calm -- 30.00 in1015.9 mb 0.00 in0.0 mm 0.00 in0.0 mm 0.15 in3.8 mm
05:46 AM 66.7°F19.3°C 65.2°F18.4°C 95% Calm Calm -- 30.00 in1015.9 mb 0.00 in0.0 mm 0.00 in0.0 mm 0.15 in3.8 mm
05:48 AM 66.7°F19.3°C 65.2°F18.4°C 95% Calm Calm -- 30.01 in1016.3 mb 0.00 in0.0 mm 0.00 in0.0 mm 0.15 in3.8 mm
05:50 AM 66.6°F19.2°C 65.1°F18.4°C 95% Calm Calm -- 30.01 in1016.3 mb 0.00 in0.0 mm 0.00 in0.0 mm 0.15 in3.8 mm
05:52 AM 66.5°F19.2°C 65.0°F18.3°C 95% Calm Calm -- 30.01 in1016.3 mb 0.00 in0.0 mm 0.00 in0.0 mm 0.15 in3.8 mm
05:54 AM 66.5°F19.2°C 65.0°F18.3°C 95% Calm Calm -- 30.01 in1016.3 mb 0.00 in0.0 mm 0.00 in0.0 mm 0.15 in3.8 mm
05:56 AM 66.5°F19.2°C 65.0°F18.3°C 95% Calm Calm 1.1 mph1.8 kmh 30.02 in1016.6 mb 0.00 in0.0 mm 0.00 in0.0 mm 0.15 in3.8 mm
05:58 AM 66.4°F19.1°C 64.9°F18.3°C 95% Calm Calm -- 30.02 in1016.6 mb 0.00 in0.0 mm 0.00 in0.0 mm 0.15 in3.8 mm
06:00 AM 66.3°F19.1°C 64.8°F18.2°C 95% Calm Calm -- 30.01 in1016.3 mb 0.00 in0.0 mm 0.00 in0.0 mm 0.15 in3.8 mm
06:02 AM 66.3°F19.1°C 64.8°F18.2°C 95% Calm Calm -- 30.01 in1016.3 mb 0.00 in0.0 mm 0.00 in0.0 mm 0.15 in3.8 mm
06:04 AM 66.3°F19.1°C 64.8°F18.2°C 95% Calm Calm -- 30.01 in1016.3 mb 0.00 in0.0 mm 0.00 in0.0 mm 0.15 in3.8 mm
06:06 AM 66.2°F19.0°C 64.7°F18.2°C 95% Calm Calm -- 30.02 in1016.6 mb 0.00 in0.0 mm 0.00 in0.0 mm 0.15 in3.8 mm
06:08 AM 66.2°F19.0°C 64.7°F18.2°C 95% Calm Calm 1.1 mph1.8 kmh 30.02 in1016.6 mb 0.00 in0.0 mm 0.00 in0.0 mm 0.15 in3.8 mm
06:10 AM 66.2°F19.0°C 64.7°F18.2°C 95% Calm Calm 1.1 mph1.8 kmh 30.02 in1016.6 mb 0.00 in0.0 mm 0.00 in0.0 mm 0.15 in3.8 mm
06:12 AM 66.2°F19.0°C 64.7°F18.2°C 95% Calm Calm 2.3 mph3.7 kmh 30.02 in1016.6 mb 0.00 in0.0 mm 0.00 in0.0 mm 0.15 in3.8 mm
06:14 AM 66.1°F18.9°C 64.6°F18.1°C 95% Calm Calm 2.3 mph3.7 kmh 30.02 in1016.6 mb 0.00 in0.0 mm 0.00 in0.0 mm 0.15 in3.8 mm
06:16 AM 66.1°F18.9°C 64.6°F18.1°C 95% Calm Calm 2.3 mph3.7 kmh 30.02 in1016.6 mb 0.00 in0.0 mm 0.00 in0.0 mm 0.15 in3.8 mm
06:18 AM 66.1°F18.9°C 64.6°F18.1°C 95% Calm Calm 2.3 mph3.7 kmh 30.02 in1016.6 mb 0.00 in0.0 mm 0.00 in0.0 mm 0.15 in3.8 mm
06:20 AM 66.0°F18.9°C 64.5°F18.1°C 95% Calm Calm -- 30.02 in1016.6 mb 0.00 in0.0 mm 0.00 in0.0 mm 0.15 in3.8 mm
06:22 AM 65.9°F18.8°C 64.4°F18.0°C 95% Calm Calm -- 30.03 in1016.9 mb 0.00 in0.0 mm 0.00 in0.0 mm 0.15 in3.8 mm
06:24 AM 65.9°F18.8°C 64.4°F18.0°C 95% Calm Calm -- 30.03 in1016.9 mb 0.00 in0.0 mm 0.00 in0.0 mm 0.15 in3.8 mm
06:26 AM 65.9°F18.8°C 64.4°F18.0°C 95% Calm Calm 1.1 mph1.8 kmh 30.03 in1016.9 mb 0.00 in0.0 mm 0.00 in0.0 mm 0.15 in3.8 mm
06:28 AM 65.9°F18.8°C 64.4°F18.0°C 95% Calm Calm -- 30.03 in1016.9 mb 0.00 in0.0 mm 0.00 in0.0 mm 0.15 in3.8 mm
06:30 AM 65.9°F18.8°C 64.7°F18.2°C 96% Calm Calm 1.1 mph1.8 kmh 30.02 in1016.6 mb 0.00 in0.0 mm 0.00 in0.0 mm 0.15 in3.8 mm
06:32 AM 65.9°F18.8°C 64.7°F18.2°C 96% Calm Calm 2.3 mph3.7 kmh 30.02 in1016.6 mb 0.00 in0.0 mm 0.00 in0.0 mm 0.15 in3.8 mm
06:34 AM 65.9°F18.8°C 64.7°F18.2°C 96% Calm Calm 1.1 mph1.8 kmh 30.02 in1016.6 mb 0.00 in0.0 mm 0.00 in0.0 mm 0.15 in3.8 mm
06:36 AM 65.9°F18.8°C 64.7°F18.2°C 96% Calm Calm 1.1 mph1.8 kmh 30.02 in1016.6 mb 0.00 in0.0 mm 0.00 in0.0 mm 0.15 in3.8 mm
06:38 AM 65.9°F18.8°C 64.7°F18.2°C 96% Calm Calm -- 30.02 in1016.6 mb 0.00 in0.0 mm 0.00 in0.0 mm 0.15 in3.8 mm
06:40 AM 65.9°F18.8°C 64.7°F18.2°C 96% Calm Calm -- 30.02 in1016.6 mb 0.00 in0.0 mm 0.00 in0.0 mm 0.15 in3.8 mm
06:42 AM 65.8°F18.8°C 64.6°F18.1°C 96% Calm Calm -- 30.02 in1016.6 mb 0.00 in0.0 mm 0.00 in0.0 mm 0.15 in3.8 mm
06:44 AM 65.8°F18.8°C 64.6°F18.1°C 96% Calm Calm -- 30.02 in1016.6 mb 0.00 in0.0 mm 0.00 in0.0 mm 0.15 in3.8 mm
06:46 AM 65.8°F18.8°C 64.6°F18.1°C 96% Calm Calm 1.1 mph1.8 kmh 30.03 in1016.9 mb 0.00 in0.0 mm 0.00 in0.0 mm 0.15 in3.8 mm
06:48 AM 65.7°F18.7°C 64.5°F18.1°C 96% Calm Calm -- 30.03 in1016.9 mb 0.00 in0.0 mm 0.00 in0.0 mm 0.15 in3.8 mm
06:50 AM 65.7°F18.7°C 64.5°F18.1°C 96% Calm Calm -- 30.04 in1017.3 mb 0.00 in0.0 mm 0.00 in0.0 mm 0.15 in3.8 mm
06:52 AM 65.8°F18.8°C 64.6°F18.1°C 96% Calm Calm -- 30.04 in1017.3 mb 0.00 in0.0 mm 0.00 in0.0 mm 0.15 in3.8 mm
06:54 AM 65.7°F18.7°C 64.5°F18.1°C 96% Calm Calm -- 30.04 in1017.3 mb 0.00 in0.0 mm 0.00 in0.0 mm 0.15 in3.8 mm
06:56 AM 65.7°F18.7°C 64.5°F18.1°C 96% Calm Calm -- 30.04 in1017.3 mb 0.00 in0.0 mm 0.00 in0.0 mm 0.15 in3.8 mm
06:58 AM 65.7°F18.7°C 64.5°F18.1°C 96% Calm Calm -- 30.04 in1017.3 mb 0.00 in0.0 mm 0.00 in0.0 mm 0.15 in3.8 mm
07:00 AM 65.7°F18.7°C 64.5°F18.1°C 96% Calm Calm -- 30.04 in1017.3 mb 0.00 in0.0 mm 0.00 in0.0 mm 0.15 in3.8 mm
07:02 AM 65.7°F18.7°C 64.5°F18.1°C 96% Calm Calm -- 30.04 in1017.3 mb 0.00 in0.0 mm 0.00 in0.0 mm 0.15 in3.8 mm
07:04 AM 65.7°F18.7°C 64.5°F18.1°C 96% Calm Calm -- 30.04 in1017.3 mb 0.00 in0.0 mm 0.00 in0.0 mm 0.15 in3.8 mm
07:06 AM 65.8°F18.8°C 64.6°F18.1°C 96% Calm Calm -- 30.04 in1017.3 mb 0.00 in0.0 mm 0.00 in0.0 mm 0.15 in3.8 mm
07:08 AM 65.8°F18.8°C 64.6°F18.1°C 96% Calm Calm -- 30.05 in1017.6 mb 0.00 in0.0 mm 0.00 in0.0 mm 0.15 in3.8 mm
07:10 AM 65.8°F18.8°C 64.6°F18.1°C 96% Calm Calm -- 30.05 in1017.6 mb 0.00 in0.0 mm 0.00 in0.0 mm 0.15 in3.8 mm
07:12 AM 65.8°F18.8°C 64.6°F18.1°C 96% Calm Calm -- 30.04 in1017.3 mb 0.00 in0.0 mm 0.00 in0.0 mm 0.15 in3.8 mm
07:14 AM 65.9°F18.8°C 64.7°F18.2°C 96% Calm Calm -- 30.04 in1017.3 mb 0.00 in0.0 mm 0.00 in0.0 mm 0.15 in3.8 mm
07:16 AM 65.8°F18.8°C 64.6°F18.1°C 96% Calm Calm -- 30.04 in1017.3 mb 0.00 in0.0 mm 0.00 in0.0 mm 0.15 in3.8 mm
07:18 AM 65.9°F18.8°C 65.0°F18.3°C 97% Calm Calm -- 30.04 in1017.3 mb 0.00 in0.0 mm 0.00 in0.0 mm 0.15 in3.8 mm
07:20 AM 65.9°F18.8°C 65.0°F18.3°C 97% Calm Calm -- 30.03 in1016.9 mb 0.00 in0.0 mm 0.00 in0.0 mm 0.15 in3.8 mm
07:22 AM 65.9°F18.8°C 65.0°F18.3°C 97% Calm Calm -- 30.03 in1016.9 mb 0.00 in0.0 mm 0.00 in0.0 mm 0.15 in3.8 mm
07:24 AM 65.9°F18.8°C 65.0°F18.3°C 97% Calm Calm 1.1 mph1.8 kmh 30.03 in1016.9 mb 0.00 in0.0 mm 0.00 in0.0 mm 0.15 in3.8 mm
07:26 AM 66.0°F18.9°C 65.1°F18.4°C 97% Calm Calm -- 30.03 in1016.9 mb 0.00 in0.0 mm 0.00 in0.0 mm 0.15 in3.8 mm
07:28 AM 65.9°F18.8°C 65.0°F18.3°C 97% Calm Calm -- 30.03 in1016.9 mb 0.00 in0.0 mm 0.00 in0.0 mm 0.15 in3.8 mm
07:30 AM 65.9°F18.8°C 64.7°F18.2°C 96% Calm Calm -- 30.03 in1016.9 mb 0.00 in0.0 mm 0.00 in0.0 mm 0.15 in3.8 mm
07:32 AM 65.9°F18.8°C 64.7°F18.2°C 96% Calm Calm -- 30.03 in1016.9 mb 0.00 in0.0 mm 0.00 in0.0 mm 0.15 in3.8 mm
07:34 AM 65.9°F18.8°C 64.7°F18.2°C 96% Calm Calm -- 30.03 in1016.9 mb 0.00 in0.0 mm 0.00 in0.0 mm 0.15 in3.8 mm
07:36 AM 65.9°F18.8°C 64.7°F18.2°C 96% Calm Calm -- 30.02 in1016.6 mb 0.00 in0.0 mm 0.00 in0.0 mm 0.15 in3.8 mm
07:38 AM 65.9°F18.8°C 64.7°F18.2°C 96% Calm Calm -- 30.02 in1016.6 mb 0.00 in0.0 mm 0.00 in0.0 mm 0.15 in3.8 mm
07:40 AM 65.9°F18.8°C 64.7°F18.2°C 96% Calm Calm 1.1 mph1.8 kmh 30.02 in1016.6 mb 0.00 in0.0 mm 0.00 in0.0 mm 0.15 in3.8 mm
07:42 AM 65.9°F18.8°C 65.0°F18.3°C 97% Calm Calm 1.1 mph1.8 kmh 30.02 in1016.6 mb 0.00 in0.0 mm 0.00 in0.0 mm 0.15 in3.8 mm
07:44 AM 66.0°F18.9°C 65.1°F18.4°C 97% 2.0 mph S3.2 kmh S 2.3 mph3.7 kmh 30.02 in1016.6 mb 0.00 in0.0 mm 0.00 in0.0 mm 0.15 in3.8 mm
07:46 AM 66.1°F18.9°C 65.2°F18.4°C 97% Calm Calm 2.3 mph3.7 kmh 30.02 in1016.6 mb 0.00 in0.0 mm 0.00 in0.0 mm 0.15 in3.8 mm
07:48 AM 66.2°F19.0°C 65.3°F18.5°C 97% Calm Calm -- 30.02 in1016.6 mb 0.00 in0.0 mm 0.00 in0.0 mm 0.15 in3.8 mm
07:50 AM 66.3°F19.1°C 65.4°F18.6°C 97% Calm Calm -- 30.03 in1016.9 mb 0.00 in0.0 mm 0.00 in0.0 mm 0.15 in3.8 mm
07:52 AM 66.5°F19.2°C 65.6°F18.7°C 97% Calm Calm 1.1 mph1.8 kmh 30.03 in1016.9 mb 0.00 in0.0 mm 0.00 in0.0 mm 0.15 in3.8 mm
07:54 AM 66.6°F19.2°C 65.7°F18.7°C 97% Calm Calm 1.1 mph1.8 kmh 30.03 in1016.9 mb 0.00 in0.0 mm 0.00 in0.0 mm 0.15 in3.8 mm
07:56 AM 66.9°F19.4°C 66.0°F18.9°C 97% Calm Calm 1.1 mph1.8 kmh 30.03 in1016.9 mb 0.00 in0.0 mm 0.00 in0.0 mm 0.15 in3.8 mm
07:58 AM 67.0°F19.4°C 66.1°F18.9°C 97% 2.0 mph SE3.2 kmh SE 2.3 mph3.7 kmh 30.03 in1016.9 mb 0.00 in0.0 mm 0.00 in0.0 mm 0.15 in3.8 mm
08:00 AM 67.2°F19.6°C 66.3°F19.1°C 97% Calm Calm 2.3 mph3.7 kmh 30.03 in1016.9 mb 0.00 in0.0 mm 0.00 in0.0 mm 0.15 in3.8 mm
08:02 AM 67.4°F19.7°C 66.5°F19.2°C 97% Calm Calm 2.3 mph3.7 kmh 30.03 in1016.9 mb 0.00 in0.0 mm 0.00 in0.0 mm 0.15 in3.8 mm
08:04 AM 67.6°F19.8°C 66.7°F19.3°C 97% Calm Calm -- 30.03 in1016.9 mb 0.00 in0.0 mm 0.00 in0.0 mm 0.15 in3.8 mm
08:06 AM 67.9°F19.9°C 67.0°F19.4°C 97% Calm Calm -- 30.03 in1016.9 mb 0.00 in0.0 mm 0.00 in0.0 mm 0.15 in3.8 mm
08:08 AM 68.0°F20.0°C 67.1°F19.5°C 97% Calm Calm 1.1 mph1.8 kmh 30.03 in1016.9 mb 0.00 in0.0 mm 0.00 in0.0 mm 0.15 in3.8 mm
08:10 AM 68.3°F20.2°C 67.4°F19.7°C 97% Calm Calm 2.3 mph3.7 kmh 30.03 in1016.9 mb 0.00 in0.0 mm 0.00 in0.0 mm 0.15 in3.8 mm
08:12 AM 68.5°F20.3°C 67.6°F19.8°C 97% Calm Calm 2.3 mph3.7 kmh 30.03 in1016.9 mb 0.00 in0.0 mm 0.00 in0.0 mm 0.15 in3.8 mm
08:14 AM 68.7°F20.4°C 67.8°F19.9°C 97% Calm Calm -- 30.03 in1016.9 mb 0.00 in0.0 mm 0.00 in0.0 mm 0.15 in3.8 mm
08:16 AM 69.0°F20.6°C 67.8°F19.9°C 96% Calm Calm 1.1 mph1.8 kmh 30.03 in1016.9 mb 0.00 in0.0 mm 0.00 in0.0 mm 0.15 in3.8 mm
08:18 AM 69.1°F20.6°C 67.6°F19.8°C 95% Calm Calm 1.1 mph1.8 kmh 30.04 in1017.3 mb 0.00 in0.0 mm 0.00 in0.0 mm 0.15 in3.8 mm
08:20 AM 69.3°F20.7°C 67.8°F19.9°C 95% 1.0 mph SW1.6 kmh SW 1.1 mph1.8 kmh 30.03 in1016.9 mb 0.00 in0.0 mm 0.00 in0.0 mm 0.15 in3.8 mm
08:22 AM 69.5°F20.8°C 68.0°F20.0°C 95% 2.0 mph WSW3.2 kmh WSW 3.4 mph5.5 kmh 30.03 in1016.9 mb 0.00 in0.0 mm 0.00 in0.0 mm 0.15 in3.8 mm
08:24 AM 69.6°F20.9°C 67.8°F19.9°C 94% Calm Calm 3.4 mph5.5 kmh 30.04 in1017.3 mb 0.00 in0.0 mm 0.00 in0.0 mm 0.15 in3.8 mm
08:26 AM 69.7°F20.9°C 67.9°F19.9°C 94% 1.0 mph NNW1.6 kmh NNW 3.4 mph5.5 kmh 30.04 in1017.3 mb 0.00 in0.0 mm 0.00 in0.0 mm 0.15 in3.8 mm
08:28 AM 69.9°F21.1°C 67.8°F19.9°C 93% 1.0 mph SE1.6 kmh SE 5.7 mph9.2 kmh 30.04 in1017.3 mb 0.00 in0.0 mm 0.00 in0.0 mm 0.15 in3.8 mm
08:30 AM 70.0°F21.1°C 67.9°F19.9°C 93% 3.0 mph S4.8 kmh S 6.8 mph10.9 kmh 30.04 in1017.3 mb 0.00 in0.0 mm 0.00 in0.0 mm 0.15 in3.8 mm
08:32 AM 70.1°F21.2°C 68.0°F20.0°C 93% Calm Calm 6.8 mph10.9 kmh 30.03 in1016.9 mb 0.00 in0.0 mm 0.00 in0.0 mm 0.15 in3.8 mm
08:34 AM 70.3°F21.3°C 68.2°F20.1°C 93% 1.0 mph SW1.6 kmh SW 6.8 mph10.9 kmh 30.04 in1017.3 mb 0.00 in0.0 mm 0.00 in0.0 mm 0.15 in3.8 mm
08:36 AM 70.4°F21.3°C 68.3°F20.2°C 93% Calm Calm 6.8 mph10.9 kmh 30.04 in1017.3 mb 0.00 in0.0 mm 0.00 in0.0 mm 0.15 in3.8 mm
08:38 AM 70.6°F21.4°C 68.2°F20.1°C 92% Calm Calm 6.8 mph10.9 kmh 30.04 in1017.3 mb 0.00 in0.0 mm 0.00 in0.0 mm 0.15 in3.8 mm
08:40 AM 70.8°F21.6°C 68.4°F20.2°C 92% 1.0 mph WSW1.6 kmh WSW 6.8 mph10.9 kmh 30.04 in1017.3 mb 0.00 in0.0 mm 0.00 in0.0 mm 0.15 in3.8 mm
08:42 AM 70.9°F21.6°C 68.5°F20.3°C 92% 2.0 mph NW3.2 kmh NW 6.8 mph10.9 kmh 30.04 in1017.3 mb 0.00 in0.0 mm 0.00 in0.0 mm 0.15 in3.8 mm
08:44 AM 71.0°F21.7°C 68.9°F20.5°C 93% Calm Calm 6.8 mph10.9 kmh 30.04 in1017.3 mb 0.00 in0.0 mm 0.00 in0.0 mm 0.15 in3.8 mm
08:46 AM 71.2°F21.8°C 68.4°F20.2°C 91% 1.0 mph S1.6 kmh S 6.8 mph10.9 kmh 30.04 in1017.3 mb 0.00 in0.0 mm 0.00 in0.0 mm 0.15 in3.8 mm
08:48 AM 71.3°F21.8°C 68.5°F20.3°C 91% 1.0 mph SE1.6 kmh SE 6.8 mph10.9 kmh 30.04 in1017.3 mb 0.00 in0.0 mm 0.00 in0.0 mm 0.15 in3.8 mm
08:50 AM 71.5°F21.9°C 69.0°F20.6°C 92% 1.0 mph SSW1.6 kmh SSW 6.8 mph10.9 kmh 30.04 in1017.3 mb 0.00 in0.0 mm 0.00 in0.0 mm 0.15 in3.8 mm
08:52 AM 71.6°F22.0°C 69.1°F20.6°C 92% Calm Calm 6.8 mph10.9 kmh 30.04 in1017.3 mb 0.00 in0.0 mm 0.00 in0.0 mm 0.15 in3.8 mm
08:54 AM 71.7°F22.1°C 68.9°F20.5°C 91% Calm Calm 6.8 mph10.9 kmh 30.04 in1017.3 mb 0.00 in0.0 mm 0.00 in0.0 mm 0.15 in3.8 mm
08:56 AM 71.7°F22.1°C 68.6°F20.3°C 90% Calm Calm 6.8 mph10.9 kmh 30.04 in1017.3 mb 0.00 in0.0 mm 0.00 in0.0 mm 0.15 in3.8 mm
08:58 AM 71.7°F22.1°C 68.9°F20.5°C 91% 4.0 mph NW6.4 kmh NW 6.8 mph10.9 kmh 30.04 in1017.3 mb 0.00 in0.0 mm 0.00 in0.0 mm 0.15 in3.8 mm
09:00 AM 71.6°F22.0°C 68.8°F20.4°C 91% 1.0 mph WSW1.6 kmh WSW 6.8 mph10.9 kmh 30.04 in1017.3 mb 0.00 in0.0 mm 0.00 in0.0 mm 0.15 in3.8 mm
09:02 AM 71.5°F21.9°C 68.7°F20.4°C 91% 1.0 mph S1.6 kmh S 6.8 mph10.9 kmh 30.04 in1017.3 mb 0.00 in0.0 mm 0.00 in0.0 mm 0.15 in3.8 mm
09:04 AM 71.5°F21.9°C 68.7°F20.4°C 91% Calm Calm 6.8 mph10.9 kmh 30.04 in1017.3 mb 0.00 in0.0 mm 0.00 in0.0 mm 0.15 in3.8 mm
09:06 AM 71.5°F21.9°C 68.7°F20.4°C 91% Calm Calm 6.8 mph10.9 kmh 30.04 in1017.3 mb 0.00 in0.0 mm 0.00 in0.0 mm 0.15 in3.8 mm
09:08 AM 71.4°F21.9°C 68.6°F20.3°C 91% Calm Calm 6.8 mph10.9 kmh 30.04 in1017.3 mb 0.00 in0.0 mm 0.00 in0.0 mm 0.15 in3.8 mm
09:10 AM 71.5°F21.9°C 69.0°F20.6°C 92% Calm Calm 6.8 mph10.9 kmh 30.04 in1017.3 mb 0.00 in0.0 mm 0.00 in0.0 mm 0.15 in3.8 mm
09:12 AM 71.5°F21.9°C 68.7°F20.4°C 91% 2.0 mph E3.2 kmh E 4.6 mph7.4 kmh 30.04 in1017.3 mb 0.00 in0.0 mm 0.00 in0.0 mm 0.15 in3.8 mm
09:14 AM 71.6°F22.0°C 68.8°F20.4°C 91% 2.0 mph S3.2 kmh S 5.7 mph9.2 kmh 30.04 in1017.3 mb 0.00 in0.0 mm 0.00 in0.0 mm 0.15 in3.8 mm
09:16 AM 71.8°F22.1°C 69.3°F20.7°C 92% Calm Calm 5.7 mph9.2 kmh 30.04 in1017.3 mb 0.00 in0.0 mm 0.00 in0.0 mm 0.15 in3.8 mm
09:18 AM 71.9°F22.2°C 69.4°F20.8°C 92% Calm Calm 5.7 mph9.2 kmh 30.04 in1017.3 mb 0.00 in0.0 mm 0.00 in0.0 mm 0.15 in3.8 mm
09:20 AM 71.9°F22.2°C 69.4°F20.8°C 92% Calm Calm 5.7 mph9.2 kmh 30.04 in1017.3 mb 0.00 in0.0 mm 0.00 in0.0 mm 0.15 in3.8 mm
09:22 AM 71.9°F22.2°C 69.1°F20.6°C 91% 1.0 mph SSW1.6 kmh SSW 5.7 mph9.2 kmh 30.04 in1017.3 mb 0.00 in0.0 mm 0.00 in0.0 mm 0.15 in3.8 mm
09:24 AM 71.8°F22.1°C 69.0°F20.6°C 91% 2.0 mph SW3.2 kmh SW 5.7 mph9.2 kmh 30.04 in1017.3 mb 0.00 in0.0 mm 0.00 in0.0 mm 0.15 in3.8 mm
09:26 AM 71.7°F22.1°C 68.9°F20.5°C 91% 1.0 mph S1.6 kmh S 5.7 mph9.2 kmh 30.04 in1017.3 mb 0.00 in0.0 mm 0.00 in0.0 mm 0.15 in3.8 mm
09:33 AM 71.6°F22.0°C 68.8°F20.4°C 91% Calm Calm 2.3 mph3.7 kmh 30.04 in1017.3 mb 0.00 in0.0 mm 0.00 in0.0 mm 0.15 in3.8 mm
09:35 AM 71.5°F21.9°C 68.7°F20.4°C 91% Calm Calm 3.4 mph5.5 kmh 30.04 in1017.3 mb 0.00 in0.0 mm 0.00 in0.0 mm 0.15 in3.8 mm
09:37 AM 71.6°F22.0°C 68.8°F20.4°C 91% 3.0 mph W4.8 kmh W 5.7 mph9.2 kmh 30.04 in1017.3 mb 0.00 in0.0 mm 0.00 in0.0 mm 0.15 in3.8 mm
09:41 AM 71.5°F21.9°C 69.0°F20.6°C 92% Calm Calm 2.3 mph3.7 kmh 30.05 in1017.6 mb 0.00 in0.0 mm 0.00 in0.0 mm 0.15 in3.8 mm
09:43 AM 71.5°F21.9°C 69.0°F20.6°C 92% Calm Calm 4.6 mph7.4 kmh 30.05 in1017.6 mb 0.00 in0.0 mm 0.00 in0.0 mm 0.15 in3.8 mm
09:45 AM 71.7°F22.1°C 69.2°F20.7°C 92% 1.0 mph WSW1.6 kmh WSW 4.6 mph7.4 kmh 30.05 in1017.6 mb 0.00 in0.0 mm 0.00 in0.0 mm 0.15 in3.8 mm
09:47 AM 71.7°F22.1°C 69.6°F20.9°C 93% Calm Calm -- 30.05 in1017.6 mb 0.00 in0.0 mm 0.00 in0.0 mm 0.15 in3.8 mm
09:49 AM 71.9°F22.2°C 69.8°F21.0°C 93% Calm Calm -- 30.05 in1017.6 mb 0.00 in0.0 mm 0.00 in0.0 mm 0.15 in3.8 mm
09:51 AM 72.0°F22.2°C 69.5°F20.8°C 92% Calm Calm 1.1 mph1.8 kmh 30.05 in1017.6 mb 0.00 in0.0 mm 0.00 in0.0 mm 0.15 in3.8 mm
09:53 AM 72.1°F22.3°C 69.6°F20.9°C 92% 1.0 mph NW1.6 kmh NW 5.7 mph9.2 kmh 30.05 in1017.6 mb 0.00 in0.0 mm 0.00 in0.0 mm 0.15 in3.8 mm
09:55 AM 72.0°F22.2°C 69.5°F20.8°C 92% Calm Calm 5.7 mph9.2 kmh 30.05 in1017.6 mb 0.00 in0.0 mm 0.00 in0.0 mm 0.15 in3.8 mm
09:57 AM 72.3°F22.4°C 69.8°F21.0°C 92% 2.0 mph NNW3.2 kmh NNW 5.7 mph9.2 kmh 30.05 in1017.6 mb 0.00 in0.0 mm 0.00 in0.0 mm 0.15 in3.8 mm
09:59 AM 72.6°F22.6°C 70.5°F21.4°C 93% 1.0 mph W1.6 kmh W 5.7 mph9.2 kmh 30.05 in1017.6 mb 0.00 in0.0 mm 0.00 in0.0 mm 0.16 in4.1 mm
10:01 AM 72.8°F22.7°C 70.3°F21.3°C 92% 1.0 mph W1.6 kmh W 5.7 mph9.2 kmh 30.05 in1017.6 mb 0.00 in0.0 mm 0.00 in0.0 mm 0.16 in4.1 mm
10:03 AM 73.1°F22.8°C 70.9°F21.6°C 93% 5.0 mph SSW8.0 kmh SSW 5.7 mph9.2 kmh 30.05 in1017.6 mb 0.00 in0.0 mm 0.00 in0.0 mm 0.16 in4.1 mm
10:05 AM 73.4°F23.0°C 70.3°F21.3°C 90% 1.0 mph NW1.6 kmh NW 9.1 mph14.6 kmh 30.06 in1017.9 mb 0.00 in0.0 mm 0.00 in0.0 mm 0.16 in4.1 mm
10:07 AM 73.6°F23.1°C 70.5°F21.4°C 90% 5.0 mph SW8.0 kmh SW 9.1 mph14.6 kmh 30.06 in1017.9 mb 0.00 in0.0 mm 0.00 in0.0 mm 0.16 in4.1 mm
10:09 AM 73.9°F23.3°C 70.8°F21.6°C 90% 3.0 mph WSW4.8 kmh WSW 9.1 mph14.6 kmh 30.06 in1017.9 mb 0.00 in0.0 mm 0.00 in0.0 mm 0.16 in4.1 mm
10:11 AM 74.2°F23.4°C 70.7°F21.5°C 89% 2.0 mph SE3.2 kmh SE 9.1 mph14.6 kmh 30.06 in1017.9 mb 0.00 in0.0 mm 0.00 in0.0 mm 0.16 in4.1 mm
10:13 AM 74.4°F23.6°C 70.3°F21.3°C 87% 1.0 mph WSW1.6 kmh WSW 9.1 mph14.6 kmh 30.06 in1017.9 mb 0.00 in0.0 mm 0.00 in0.0 mm 0.16 in4.1 mm
10:15 AM 74.7°F23.7°C 70.9°F21.6°C 88% 1.0 mph WSW1.6 kmh WSW 9.1 mph14.6 kmh 30.06 in1017.9 mb 0.00 in0.0 mm 0.00 in0.0 mm 0.16 in4.1 mm
10:17 AM 75.0°F23.9°C 71.2°F21.8°C 88% 2.0 mph SSW3.2 kmh SSW 9.1 mph14.6 kmh 30.06 in1017.9 mb 0.00 in0.0 mm 0.00 in0.0 mm 0.16 in4.1 mm
10:19 AM 75.3°F24.1°C 71.2°F21.8°C 87% 1.0 mph WNW1.6 kmh WNW 9.1 mph14.6 kmh 30.06 in1017.9 mb 0.00 in0.0 mm 0.00 in0.0 mm 0.16 in4.1 mm
10:21 AM 75.5°F24.2°C 71.3°F21.8°C 87% 2.0 mph S3.2 kmh S 10.3 mph16.6 kmh 30.06 in1017.9 mb 0.00 in0.0 mm 0.00 in0.0 mm 0.16 in4.1 mm
10:23 AM 75.7°F24.3°C 70.9°F21.6°C 85% 4.0 mph NW6.4 kmh NW 10.3 mph16.6 kmh 30.06 in1017.9 mb 0.00 in0.0 mm 0.00 in0.0 mm 0.16 in4.1 mm
10:25 AM 75.9°F24.4°C 71.1°F21.7°C 85% 3.0 mph W4.8 kmh W 10.3 mph16.6 kmh 30.06 in1017.9 mb 0.00 in0.0 mm 0.00 in0.0 mm 0.16 in4.1 mm
10:27 AM 76.1°F24.5°C 71.6°F22.0°C 86% 3.0 mph W4.8 kmh W 10.3 mph16.6 kmh 30.06 in1017.9 mb 0.00 in0.0 mm 0.00 in0.0 mm 0.16 in4.1 mm
10:29 AM 76.4°F24.7°C 72.6°F22.6°C 88% Calm Calm 10.3 mph16.6 kmh 30.06 in1017.9 mb 0.00 in0.0 mm 0.00 in0.0 mm 0.16 in4.1 mm
10:31 AM 76.6°F24.8°C 71.4°F21.9°C 84% 2.0 mph SW3.2 kmh SW 10.3 mph16.6 kmh 30.06 in1017.9 mb 0.00 in0.0 mm 0.00 in0.0 mm 0.16 in4.1 mm
10:33 AM 76.8°F24.9°C 71.6°F22.0°C 84% 2.0 mph SW3.2 kmh SW 10.3 mph16.6 kmh 30.07 in1018.3 mb 0.00 in0.0 mm 0.00 in0.0 mm 0.16 in4.1 mm
10:35 AM 76.9°F24.9°C 72.0°F22.2°C 85% 4.0 mph WSW6.4 kmh WSW 10.3 mph16.6 kmh 30.07 in1018.3 mb 0.00 in0.0 mm 0.00 in0.0 mm 0.16 in4.1 mm
10:37 AM 77.1°F25.1°C 72.6°F22.6°C 86% 1.0 mph ESE1.6 kmh ESE 10.3 mph16.6 kmh 30.06 in1017.9 mb 0.00 in0.0 mm 0.00 in0.0 mm 0.16 in4.1 mm
10:39 AM 77.3°F25.2°C 72.8°F22.7°C 86% 1.0 mph WSW1.6 kmh WSW 10.3 mph16.6 kmh 30.06 in1017.9 mb 0.00 in0.0 mm 0.00 in0.0 mm 0.16 in4.1 mm
10:41 AM 77.5°F25.3°C 71.6°F22.0°C 82% 4.0 mph WSW6.4 kmh WSW 9.1 mph14.6 kmh 30.07 in1018.3 mb 0.00 in0.0 mm 0.00 in0.0 mm 0.16 in4.1 mm
10:43 AM 77.7°F25.4°C 72.1°F22.3°C 83% Calm Calm 9.1 mph14.6 kmh 30.07 in1018.3 mb 0.00 in0.0 mm 0.00 in0.0 mm 0.16 in4.1 mm
10:45 AM 77.9°F25.5°C 72.3°F22.4°C 83% Calm Calm 9.1 mph14.6 kmh 30.06 in1017.9 mb 0.00 in0.0 mm 0.00 in0.0 mm 0.16 in4.1 mm
10:47 AM 78.0°F25.6°C 72.0°F22.2°C 82% Calm Calm 9.1 mph14.6 kmh 30.07 in1018.3 mb 0.00 in0.0 mm 0.00 in0.0 mm 0.16 in4.1 mm
10:49 AM 78.3°F25.7°C 73.1°F22.8°C 84% 1.0 mph WNW1.6 kmh WNW 9.1 mph14.6 kmh 30.07 in1018.3 mb 0.00 in0.0 mm 0.00 in0.0 mm 0.16 in4.1 mm
10:51 AM 78.5°F25.8°C 73.2°F22.9°C 84% 2.0 mph SSW3.2 kmh SSW 9.1 mph14.6 kmh 30.06 in1017.9 mb 0.00 in0.0 mm 0.00 in0.0 mm 0.16 in4.1 mm
10:53 AM 78.9°F26.1°C 72.9°F22.7°C 82% 6.0 mph SW9.7 kmh SW 9.1 mph14.6 kmh 30.06 in1017.9 mb 0.00 in0.0 mm 0.00 in0.0 mm 0.16 in4.1 mm
10:55 AM 79.2°F26.2°C 72.8°F22.7°C 81% 3.0 mph SW4.8 kmh SW 9.1 mph14.6 kmh 30.06 in1017.9 mb 0.00 in0.0 mm 0.00 in0.0 mm 0.16 in4.1 mm
10:57 AM 79.3°F26.3°C 72.9°F22.7°C 81% Calm Calm 9.1 mph14.6 kmh 30.06 in1017.9 mb 0.00 in0.0 mm 0.00 in0.0 mm 0.16 in4.1 mm
10:59 AM 79.5°F26.4°C 73.5°F23.1°C 82% 1.0 mph SW1.6 kmh SW 9.1 mph14.6 kmh 30.06 in1017.9 mb 0.00 in0.0 mm 0.00 in0.0 mm 0.16 in4.1 mm
11:01 AM 79.7°F26.5°C 73.0°F22.8°C 80% 3.0 mph W4.8 kmh W 6.8 mph10.9 kmh 30.06 in1017.9 mb 0.00 in0.0 mm 0.00 in0.0 mm 0.16 in4.1 mm
11:03 AM 79.8°F26.6°C 71.9°F22.2°C 77% 1.0 mph SW1.6 kmh SW 6.8 mph10.9 kmh 30.05 in1017.6 mb 0.00 in0.0 mm 0.00 in0.0 mm 0.16 in4.1 mm
11:05 AM 80.0°F26.7°C 72.1°F22.3°C 77% 5.0 mph SW8.0 kmh SW 8.0 mph12.9 kmh 30.05 in1017.6 mb 0.00 in0.0 mm 0.00 in0.0 mm 0.16 in4.1 mm
11:07 AM 80.1°F26.7°C 72.2°F22.3°C 77% Calm Calm 9.1 mph14.6 kmh 30.05 in1017.6 mb 0.00 in0.0 mm 0.00 in0.0 mm 0.16 in4.1 mm
11:09 AM 80.2°F26.8°C 72.3°F22.4°C 77% Calm Calm 9.1 mph14.6 kmh 30.05 in1017.6 mb 0.00 in0.0 mm 0.00 in0.0 mm 0.16 in4.1 mm
11:11 AM 80.3°F26.8°C 72.8°F22.7°C 78% 1.0 mph NE1.6 kmh NE 9.1 mph14.6 kmh 30.06 in1017.9 mb 0.00 in0.0 mm 0.00 in0.0 mm 0.16 in4.1 mm
11:13 AM 80.6°F27.0°C 73.8°F23.2°C 80% 1.0 mph NE1.6 kmh NE 9.1 mph14.6 kmh 30.06 in1017.9 mb 0.00 in0.0 mm 0.00 in0.0 mm 0.16 in4.1 mm
11:15 AM 80.9°F27.2°C 73.8°F23.2°C 79% Calm Calm 9.1 mph14.6 kmh 30.06 in1017.9 mb 0.00 in0.0 mm 0.00 in0.0 mm 0.16 in4.1 mm
11:17 AM 81.1°F27.3°C 73.2°F22.9°C 77% 2.0 mph SSW3.2 kmh SSW 9.1 mph14.6 kmh 30.06 in1017.9 mb 0.00 in0.0 mm 0.00 in0.0 mm 0.16 in4.1 mm
11:19 AM 81.3°F27.4°C 72.6°F22.6°C 75% 1.0 mph N1.6 kmh N 9.1 mph14.6 kmh 30.06 in1017.9 mb 0.00 in0.0 mm 0.00 in0.0 mm 0.16 in4.1 mm
11:21 AM 81.4°F27.4°C 72.7°F22.6°C 75% Calm Calm 9.1 mph14.6 kmh 30.06 in1017.9 mb 0.00 in0.0 mm 0.00 in0.0 mm 0.16 in4.1 mm
11:23 AM 81.5°F27.5°C 72.4°F22.4°C 74% 3.0 mph SSW4.8 kmh SSW 9.1 mph14.6 kmh 30.05 in1017.6 mb 0.00 in0.0 mm 0.00 in0.0 mm 0.16 in4.1 mm
11:25 AM 81.6°F27.6°C 72.1°F22.3°C 73% 3.0 mph SSW4.8 kmh SSW 9.1 mph14.6 kmh 30.05 in1017.6 mb 0.00 in0.0 mm 0.00 in0.0 mm 0.16 in4.1 mm
11:27 AM 81.8°F27.7°C 72.3°F22.4°C 73% 1.0 mph WNW1.6 kmh WNW 6.8 mph10.9 kmh 30.06 in1017.9 mb 0.00 in0.0 mm 0.00 in0.0 mm 0.16 in4.1 mm
11:29 AM 81.9°F27.7°C 73.2°F22.9°C 75% 2.0 mph NNW3.2 kmh NNW 6.8 mph10.9 kmh 30.06 in1017.9 mb 0.00 in0.0 mm 0.00 in0.0 mm 0.16 in4.1 mm
11:31 AM 81.9°F27.7°C 72.0°F22.2°C 72% 2.0 mph WSW3.2 kmh WSW 6.8 mph10.9 kmh 30.05 in1017.6 mb 0.00 in0.0 mm 0.00 in0.0 mm 0.16 in4.1 mm
11:33 AM 81.9°F27.7°C 72.0°F22.2°C 72% 1.0 mph SSW1.6 kmh SSW 6.8 mph10.9 kmh 30.05 in1017.6 mb 0.00 in0.0 mm 0.00 in0.0 mm 0.16 in4.1 mm
11:35 AM 82.0°F27.8°C 72.9°F22.7°C 74% 1.0 mph NW1.6 kmh NW 6.8 mph10.9 kmh 30.05 in1017.6 mb 0.00 in0.0 mm 0.00 in0.0 mm 0.16 in4.1 mm
11:37 AM 82.1°F27.8°C 71.3°F21.8°C 70% 2.0 mph WNW3.2 kmh WNW 8.0 mph12.9 kmh 30.05 in1017.6 mb 0.00 in0.0 mm 0.00 in0.0 mm 0.16 in4.1 mm
11:39 AM 82.3°F27.9°C 72.8°F22.7°C 73% 2.0 mph WNW3.2 kmh WNW 8.0 mph12.9 kmh 30.05 in1017.6 mb 0.00 in0.0 mm 0.00 in0.0 mm 0.16 in4.1 mm
11:41 AM 82.4°F28.0°C 72.4°F22.4°C 72% 1.0 mph NW1.6 kmh NW 8.0 mph12.9 kmh 30.05 in1017.6 mb 0.00 in0.0 mm 0.00 in0.0 mm 0.16 in4.1 mm
11:43 AM 82.5°F28.1°C 73.4°F23.0°C 74% 3.0 mph W4.8 kmh W 8.0 mph12.9 kmh 30.05 in1017.6 mb 0.00 in0.0 mm 0.00 in0.0 mm 0.16 in4.1 mm
11:45 AM 82.5°F28.1°C 71.7°F22.1°C 70% 2.0 mph W3.2 kmh W 8.0 mph12.9 kmh 30.05 in1017.6 mb 0.00 in0.0 mm 0.00 in0.0 mm 0.16 in4.1 mm
11:47 AM 82.5°F28.1°C 72.1°F22.3°C 71% 1.0 mph SSE1.6 kmh SSE 8.0 mph12.9 kmh 30.05 in1017.6 mb 0.00 in0.0 mm 0.00 in0.0 mm 0.16 in4.1 mm
11:49 AM 82.7°F28.2°C 71.5°F21.9°C 69% 2.0 mph WNW3.2 kmh WNW 8.0 mph12.9 kmh 30.05 in1017.6 mb 0.00 in0.0 mm 0.00 in0.0 mm 0.16 in4.1 mm
11:51 AM 82.8°F28.2°C 73.2°F22.9°C 73% 3.0 mph W4.8 kmh W 8.0 mph12.9 kmh 30.05 in1017.6 mb 0.00 in0.0 mm 0.00 in0.0 mm 0.16 in4.1 mm
11:53 AM 82.8°F28.2°C 71.6°F22.0°C 69% 2.0 mph NW3.2 kmh NW 8.0 mph12.9 kmh 30.05 in1017.6 mb 0.00 in0.0 mm 0.00 in0.0 mm 0.16 in4.1 mm
11:55 AM 82.9°F28.3°C 72.9°F22.7°C 72% 1.0 mph NW1.6 kmh NW 8.0 mph12.9 kmh 30.05 in1017.6 mb 0.00 in0.0 mm 0.00 in0.0 mm 0.16 in4.1 mm
11:57 AM 82.9°F28.3°C 72.1°F22.3°C 70% Calm Calm 9.1 mph14.6 kmh 30.05 in1017.6 mb 0.00 in0.0 mm 0.00 in0.0 mm 0.16 in4.1 mm
11:59 AM 83.1°F28.4°C 71.8°F22.1°C 69% 3.0 mph W4.8 kmh W 9.1 mph14.6 kmh 30.06 in1017.9 mb 0.00 in0.0 mm 0.00 in0.0 mm 0.16 in4.1 mm
12:01 PM 83.4°F28.6°C 72.6°F22.6°C 70% 1.0 mph E1.6 kmh E 9.1 mph14.6 kmh 30.06 in1017.9 mb 0.00 in0.0 mm 0.00 in0.0 mm 0.16 in4.1 mm
12:03 PM 83.4°F28.6°C 72.1°F22.3°C 69% Calm Calm 9.1 mph14.6 kmh 30.05 in1017.6 mb 0.00 in0.0 mm 0.00 in0.0 mm 0.16 in4.1 mm
12:05 PM 83.6°F28.7°C 72.8°F22.7°C 70% 2.0 mph N3.2 kmh N 9.1 mph14.6 kmh 30.05 in1017.6 mb 0.00 in0.0 mm 0.00 in0.0 mm 0.16 in4.1 mm
12:07 PM 83.6°F28.7°C 71.9°F22.2°C 68% 1.0 mph S1.6 kmh S 9.1 mph14.6 kmh 30.05 in1017.6 mb 0.00 in0.0 mm 0.00 in0.0 mm 0.16 in4.1 mm
12:09 PM 83.7°F28.7°C 72.8°F22.7°C 70% 1.0 mph WNW1.6 kmh WNW 9.1 mph14.6 kmh 30.05 in1017.6 mb 0.00 in0.0 mm 0.00 in0.0 mm 0.16 in4.1 mm
12:11 PM 83.8°F28.8°C 72.5°F22.5°C 69% 1.0 mph N1.6 kmh N 9.1 mph14.6 kmh 30.05 in1017.6 mb 0.00 in0.0 mm 0.00 in0.0 mm 0.16 in4.1 mm
12:13 PM 84.0°F28.9°C 71.8°F22.1°C 67% 4.0 mph SW6.4 kmh SW 9.1 mph14.6 kmh 30.05 in1017.6 mb 0.00 in0.0 mm 0.00 in0.0 mm 0.16 in4.1 mm
12:15 PM 84.0°F28.9°C 71.4°F21.9°C 66% 2.0 mph SW3.2 kmh SW 9.1 mph14.6 kmh 30.05 in1017.6 mb 0.00 in0.0 mm 0.00 in0.0 mm 0.16 in4.1 mm
12:17 PM 84.0°F28.9°C 70.9°F21.6°C 65% Calm Calm 8.0 mph12.9 kmh 30.05 in1017.6 mb 0.00 in0.0 mm 0.00 in0.0 mm 0.16 in4.1 mm
12:19 PM 83.9°F28.8°C 70.8°F21.6°C 65% Calm Calm 8.0 mph12.9 kmh 30.05 in1017.6 mb 0.00 in0.0 mm 0.00 in0.0 mm 0.16 in4.1 mm
12:21 PM 83.8°F28.8°C 72.1°F22.3°C 68% Calm Calm 8.0 mph12.9 kmh 30.05 in1017.6 mb 0.00 in0.0 mm 0.00 in0.0 mm 0.16 in4.1 mm
12:23 PM 83.9°F28.8°C 71.7°F22.1°C 67% 1.0 mph W1.6 kmh W 8.0 mph12.9 kmh 30.05 in1017.6 mb 0.00 in0.0 mm 0.00 in0.0 mm 0.16 in4.1 mm
12:25 PM 83.7°F28.7°C 72.0°F22.2°C 68% 3.0 mph S4.8 kmh S 8.0 mph12.9 kmh 30.05 in1017.6 mb 0.00 in0.0 mm 0.00 in0.0 mm 0.16 in4.1 mm
12:27 PM 83.5°F28.6°C 70.9°F21.6°C 66% 1.0 mph SW1.6 kmh SW 6.8 mph10.9 kmh 30.05 in1017.6 mb 0.00 in0.0 mm 0.00 in0.0 mm 0.16 in4.1 mm
12:29 PM 83.5°F28.6°C 71.8°F22.1°C 68% 2.0 mph NE3.2 kmh NE 8.0 mph12.9 kmh 30.04 in1017.3 mb 0.00 in0.0 mm 0.00 in0.0 mm 0.16 in4.1 mm
12:31 PM 83.5°F28.6°C 70.9°F21.6°C 66% 3.0 mph SSE4.8 kmh SSE 8.0 mph12.9 kmh 30.04 in1017.3 mb 0.00 in0.0 mm 0.00 in0.0 mm 0.16 in4.1 mm
12:33 PM 83.4°F28.6°C 70.8°F21.6°C 66% 4.0 mph S6.4 kmh S 8.0 mph12.9 kmh 30.04 in1017.3 mb 0.00 in0.0 mm 0.00 in0.0 mm 0.16 in4.1 mm
12:35 PM 83.5°F28.6°C 71.4°F21.9°C 67% 2.0 mph W3.2 kmh W 8.0 mph12.9 kmh 30.04 in1017.3 mb 0.00 in0.0 mm 0.00 in0.0 mm 0.16 in4.1 mm
12:37 PM 83.5°F28.6°C 70.5°F21.4°C 65% 5.0 mph SW8.0 kmh SW 8.0 mph12.9 kmh 30.04 in1017.3 mb 0.00 in0.0 mm 0.00 in0.0 mm 0.16 in4.1 mm
12:39 PM 83.6°F28.7°C 71.9°F22.2°C 68% 4.0 mph WNW6.4 kmh WNW 8.0 mph12.9 kmh 30.04 in1017.3 mb 0.00 in0.0 mm 0.00 in0.0 mm 0.16 in4.1 mm
12:41 PM 83.7°F28.7°C 71.5°F21.9°C 67% 4.0 mph SW6.4 kmh SW 8.0 mph12.9 kmh 30.04 in1017.3 mb 0.00 in0.0 mm 0.00 in0.0 mm 0.16 in4.1 mm
12:43 PM 83.8°F28.8°C 71.2°F21.8°C 66% 3.0 mph S4.8 kmh S 8.0 mph12.9 kmh 30.04 in1017.3 mb 0.00 in0.0 mm 0.00 in0.0 mm 0.16 in4.1 mm
12:45 PM 83.8°F28.8°C 72.1°F22.3°C 68% Calm Calm 8.0 mph12.9 kmh 30.04 in1017.3 mb 0.00 in0.0 mm 0.00 in0.0 mm 0.16 in4.1 mm
12:47 PM 83.8°F28.8°C 70.7°F21.5°C 65% Calm Calm 8.0 mph12.9 kmh 30.04 in1017.3 mb 0.00 in0.0 mm 0.00 in0.0 mm 0.16 in4.1 mm
12:49 PM 83.7°F28.7°C 70.7°F21.5°C 65% 1.0 mph S1.6 kmh S 6.8 mph10.9 kmh 30.04 in1017.3 mb 0.00 in0.0 mm 0.00 in0.0 mm 0.16 in4.1 mm
12:51 PM 83.7°F28.7°C 71.5°F21.9°C 67% Calm Calm 6.8 mph10.9 kmh 30.04 in1017.3 mb 0.00 in0.0 mm 0.00 in0.0 mm 0.16 in4.1 mm
12:53 PM 83.7°F28.7°C 71.5°F21.9°C 67% 5.0 mph SSW8.0 kmh SSW 6.8 mph10.9 kmh 30.04 in1017.3 mb 0.00 in0.0 mm 0.00 in0.0 mm 0.16 in4.1 mm
12:55 PM 83.8°F28.8°C 72.1°F22.3°C 68% 2.0 mph W3.2 kmh W 6.8 mph10.9 kmh 30.04 in1017.3 mb 0.00 in0.0 mm 0.00 in0.0 mm 0.16 in4.1 mm
12:57 PM 83.8°F28.8°C 72.1°F22.3°C 68% 1.0 mph WSW1.6 kmh WSW 6.8 mph10.9 kmh 30.04 in1017.3 mb 0.00 in0.0 mm 0.00 in0.0 mm 0.16 in4.1 mm
12:59 PM 83.9°F28.8°C 71.3°F21.8°C 66% 1.0 mph SE1.6 kmh SE 5.7 mph9.2 kmh 30.04 in1017.3 mb 0.00 in0.0 mm 0.00 in0.0 mm 0.16 in4.1 mm
01:01 PM 84.1°F28.9°C 72.4°F22.4°C 68% 1.0 mph N1.6 kmh N 5.7 mph9.2 kmh 30.04 in1017.3 mb 0.00 in0.0 mm 0.00 in0.0 mm 0.16 in4.1 mm
01:03 PM 84.1°F28.9°C 72.4°F22.4°C 68% Calm Calm 5.7 mph9.2 kmh 30.04 in1017.3 mb 0.00 in0.0 mm 0.00 in0.0 mm 0.16 in4.1 mm
01:05 PM 84.2°F29.0°C 72.9°F22.7°C 69% 1.0 mph WSW1.6 kmh WSW 5.7 mph9.2 kmh 30.04 in1017.3 mb 0.00 in0.0 mm 0.00 in0.0 mm 0.16 in4.1 mm
01:07 PM 84.3°F29.1°C 73.0°F22.8°C 69% 2.0 mph SW3.2 kmh SW 5.7 mph9.2 kmh 30.03 in1016.9 mb 0.00 in0.0 mm 0.00 in0.0 mm 0.16 in4.1 mm
01:09 PM 84.3°F29.1°C 73.4°F23.0°C 70% Calm Calm 4.6 mph7.4 kmh 30.03 in1016.9 mb 0.00 in0.0 mm 0.00 in0.0 mm 0.16 in4.1 mm
01:11 PM 84.3°F29.1°C 74.3°F23.5°C 72% Calm Calm 5.7 mph9.2 kmh 30.03 in1016.9 mb 0.00 in0.0 mm 0.00 in0.0 mm 0.16 in4.1 mm
01:13 PM 84.3°F29.1°C 71.7°F22.1°C 66% 3.0 mph WSW4.8 kmh WSW 5.7 mph9.2 kmh 30.03 in1016.9 mb 0.00 in0.0 mm 0.00 in0.0 mm 0.16 in4.1 mm
01:15 PM 84.5°F29.2°C 71.9°F22.2°C 66% 1.0 mph NW1.6 kmh NW 5.7 mph9.2 kmh 30.03 in1016.9 mb 0.00 in0.0 mm 0.00 in0.0 mm 0.16 in4.1 mm
01:17 PM 84.7°F29.3°C 71.6°F22.0°C 65% 1.0 mph W1.6 kmh W 5.7 mph9.2 kmh 30.03 in1016.9 mb 0.00 in0.0 mm 0.00 in0.0 mm 0.16 in4.1 mm
01:19 PM 84.8°F29.3°C 72.1°F22.3°C 66% 2.0 mph WSW3.2 kmh WSW 8.0 mph12.9 kmh 30.03 in1016.9 mb 0.00 in0.0 mm 0.00 in0.0 mm 0.16 in4.1 mm
01:21 PM 85.0°F29.4°C 71.9°F22.2°C 65% 1.0 mph S1.6 kmh S 8.0 mph12.9 kmh 30.03 in1016.9 mb 0.00 in0.0 mm 0.00 in0.0 mm 0.16 in4.1 mm
01:23 PM 85.2°F29.6°C 72.1°F22.3°C 65% 1.0 mph S1.6 kmh S 8.0 mph12.9 kmh 30.03 in1016.9 mb 0.00 in0.0 mm 0.00 in0.0 mm 0.16 in4.1 mm
01:25 PM 85.4°F29.7°C 71.3°F21.8°C 63% 1.0 mph ESE1.6 kmh ESE 8.0 mph12.9 kmh 30.02 in1016.6 mb 0.00 in0.0 mm 0.00 in0.0 mm 0.16 in4.1 mm
01:27 PM 85.5°F29.7°C 71.9°F22.2°C 64% 1.0 mph S1.6 kmh S 8.0 mph12.9 kmh 30.03 in1016.9 mb 0.00 in0.0 mm 0.00 in0.0 mm 0.16 in4.1 mm
01:29 PM 85.6°F29.8°C 72.0°F22.2°C 64% 1.0 mph SE1.6 kmh SE 8.0 mph12.9 kmh 30.03 in1016.9 mb 0.00 in0.0 mm 0.00 in0.0 mm 0.16 in4.1 mm
01:31 PM 85.7°F29.8°C 73.0°F22.8°C 66% 2.0 mph NNE3.2 kmh NNE 8.0 mph12.9 kmh 30.03 in1016.9 mb 0.00 in0.0 mm 0.00 in0.0 mm 0.16 in4.1 mm
01:33 PM 85.9°F29.9°C 72.7°F22.6°C 65% Calm Calm 8.0 mph12.9 kmh 30.03 in1016.9 mb 0.00 in0.0 mm 0.00 in0.0 mm 0.16 in4.1 mm
01:35 PM 85.9°F29.9°C 71.8°F22.1°C 63% Calm Calm 8.0 mph12.9 kmh 30.02 in1016.6 mb 0.00 in0.0 mm 0.00 in0.0 mm 0.16 in4.1 mm
01:37 PM 85.9°F29.9°C 73.6°F23.1°C 67% 4.0 mph SW6.4 kmh SW 8.0 mph12.9 kmh 30.03 in1016.9 mb 0.00 in0.0 mm 0.00 in0.0 mm 0.16 in4.1 mm
01:39 PM 85.9°F29.9°C 71.8°F22.1°C 63% Calm Calm 5.7 mph9.2 kmh 30.03 in1016.9 mb 0.00 in0.0 mm 0.00 in0.0 mm 0.16 in4.1 mm
01:41 PM 85.8°F29.9°C 71.2°F21.8°C 62% Calm Calm 5.7 mph9.2 kmh 30.03 in1016.9 mb 0.00 in0.0 mm 0.00 in0.0 mm 0.16 in4.1 mm
01:43 PM 85.7°F29.8°C 71.6°F22.0°C 63% 1.0 mph WNW1.6 kmh WNW 5.7 mph9.2 kmh 30.03 in1016.9 mb 0.00 in0.0 mm 0.00 in0.0 mm 0.16 in4.1 mm
01:45 PM 85.7°F29.8°C 71.1°F21.7°C 62% 3.0 mph W4.8 kmh W 5.7 mph9.2 kmh 30.03 in1016.9 mb 0.00 in0.0 mm 0.00 in0.0 mm 0.16 in4.1 mm
01:47 PM 85.6°F29.8°C 71.5°F21.9°C 63% 1.0 mph WSW1.6 kmh WSW 5.7 mph9.2 kmh 30.03 in1016.9 mb 0.00 in0.0 mm 0.00 in0.0 mm 0.16 in4.1 mm
01:49 PM 85.6°F29.8°C 71.5°F21.9°C 63% 1.0 mph WSW1.6 kmh WSW 8.0 mph12.9 kmh 30.03 in1016.9 mb 0.00 in0.0 mm 0.00 in0.0 mm 0.16 in4.1 mm
01:51 PM 85.4°F29.7°C 72.3°F22.4°C 65% 2.0 mph NW3.2 kmh NW 8.0 mph12.9 kmh 30.03 in1016.9 mb 0.00 in0.0 mm 0.00 in0.0 mm 0.16 in4.1 mm
01:53 PM 85.3°F29.6°C 72.2°F22.3°C 65% Calm Calm 8.0 mph12.9 kmh 30.03 in1016.9 mb 0.00 in0.0 mm 0.00 in0.0 mm 0.16 in4.1 mm
01:55 PM 85.2°F29.6°C 70.7°F21.5°C 62% 2.0 mph SW3.2 kmh SW 8.0 mph12.9 kmh 30.03 in1016.9 mb 0.00 in0.0 mm 0.00 in0.0 mm 0.16 in4.1 mm
01:57 PM 85.2°F29.6°C 71.6°F22.0°C 64% 1.0 mph SW1.6 kmh SW 8.0 mph12.9 kmh 30.03 in1016.9 mb 0.00 in0.0 mm 0.00 in0.0 mm 0.16 in4.1 mm
01:59 PM 85.1°F29.5°C 72.0°F22.2°C 65% Calm Calm 8.0 mph12.9 kmh 30.03 in1016.9 mb 0.00 in0.0 mm 0.00 in0.0 mm 0.16 in4.1 mm
02:01 PM 85.2°F29.6°C 71.6°F22.0°C 64% Calm Calm 8.0 mph12.9 kmh 30.03 in1016.9 mb 0.00 in0.0 mm 0.00 in0.0 mm 0.16 in4.1 mm
02:03 PM 85.2°F29.6°C 72.1°F22.3°C 65% Calm Calm 8.0 mph12.9 kmh 30.03 in1016.9 mb 0.00 in0.0 mm 0.00 in0.0 mm 0.16 in4.1 mm
02:05 PM 85.2°F29.6°C 70.7°F21.5°C 62% 1.0 mph NW1.6 kmh NW 8.0 mph12.9 kmh 30.03 in1016.9 mb 0.00 in0.0 mm 0.00 in0.0 mm 0.16 in4.1 mm
02:07 PM 85.2°F29.6°C 71.6°F22.0°C 64% 1.0 mph SSW1.6 kmh SSW 8.0 mph12.9 kmh 30.03 in1016.9 mb 0.00 in0.0 mm 0.00 in0.0 mm 0.16 in4.1 mm
02:09 PM 85.2°F29.6°C 73.0°F22.8°C 67% 1.0 mph WSW1.6 kmh WSW 6.8 mph10.9 kmh 30.03 in1016.9 mb 0.00 in0.0 mm 0.00 in0.0 mm 0.16 in4.1 mm
02:11 PM 85.1°F29.5°C 71.5°F21.9°C 64% Calm Calm 6.8 mph10.9 kmh 30.03 in1016.9 mb 0.00 in0.0 mm 0.00 in0.0 mm 0.16 in4.1 mm
02:13 PM 85.1°F29.5°C 72.0°F22.2°C 65% Calm Calm 6.8 mph10.9 kmh 30.03 in1016.9 mb 0.00 in0.0 mm 0.00 in0.0 mm 0.16 in4.1 mm
02:15 PM 85.1°F29.5°C 71.5°F21.9°C 64% Calm Calm 6.8 mph10.9 kmh 30.03 in1016.9 mb 0.00 in0.0 mm 0.00 in0.0 mm 0.16 in4.1 mm
02:17 PM 85.2°F29.6°C 70.7°F21.5°C 62% 1.0 mph S1.6 kmh S 6.8 mph10.9 kmh 30.03 in1016.9 mb 0.00 in0.0 mm 0.00 in0.0 mm 0.16 in4.1 mm
02:19 PM 85.2°F29.6°C 70.7°F21.5°C 62% 1.0 mph SW1.6 kmh SW 4.6 mph7.4 kmh 30.03 in1016.9 mb 0.00 in0.0 mm 0.00 in0.0 mm 0.16 in4.1 mm
02:21 PM 85.3°F29.6°C 71.2°F21.8°C 63% 2.0 mph SW3.2 kmh SW 4.6 mph7.4 kmh 30.03 in1016.9 mb 0.00 in0.0 mm 0.00 in0.0 mm 0.16 in4.1 mm
02:23 PM 85.3°F29.6°C 71.2°F21.8°C 63% Calm Calm 9.1 mph14.6 kmh 30.03 in1016.9 mb 0.00 in0.0 mm 0.00 in0.0 mm 0.16 in4.1 mm
02:25 PM 85.4°F29.7°C 71.8°F22.1°C 64% 1.0 mph SW1.6 kmh SW 9.1 mph14.6 kmh 30.03 in1016.9 mb 0.00 in0.0 mm 0.00 in0.0 mm 0.16 in4.1 mm
02:27 PM 85.4°F29.7°C 71.3°F21.8°C 63% Calm Calm 9.1 mph14.6 kmh 30.03 in1016.9 mb 0.00 in0.0 mm 0.00 in0.0 mm 0.16 in4.1 mm
02:29 PM 85.5°F29.7°C 72.4°F22.4°C 65% Calm Calm -- 30.03 in1016.9 mb 0.00 in0.0 mm 0.00 in0.0 mm 0.16 in4.1 mm
02:31 PM 85.6°F29.8°C 70.6°F21.4°C 61% Calm Calm 4.6 mph7.4 kmh 30.03 in1016.9 mb 0.00 in0.0 mm 0.00 in0.0 mm 0.16 in4.1 mm
02:33 PM 85.6°F29.8°C 72.5°F22.5°C 65% Calm Calm 4.6 mph7.4 kmh 30.03 in1016.9 mb 0.00 in0.0 mm 0.00 in0.0 mm 0.16 in4.1 mm
02:35 PM 85.6°F29.8°C 72.5°F22.5°C 65% Calm Calm 4.6 mph7.4 kmh 30.03 in1016.9 mb 0.00 in0.0 mm 0.00 in0.0 mm 0.16 in4.1 mm
02:42 PM 85.4°F29.7°C 71.8°F22.1°C 64% Calm Calm 1.1 mph1.8 kmh 30.04 in1017.3 mb 0.00 in0.0 mm 0.00 in0.0 mm 0.16 in4.1 mm
02:44 PM 85.3°F29.6°C 71.2°F21.8°C 63% Calm Calm 1.1 mph1.8 kmh 30.04 in1017.3 mb 0.00 in0.0 mm 0.00 in0.0 mm 0.16 in4.1 mm
02:46 PM 85.2°F29.6°C 71.6°F22.0°C 64% 1.0 mph ENE1.6 kmh ENE 1.1 mph1.8 kmh 30.03 in1016.9 mb 0.00 in0.0 mm 0.00 in0.0 mm 0.16 in4.1 mm
02:48 PM 85.1°F29.5°C 71.5°F21.9°C 64% Calm Calm 2.3 mph3.7 kmh 30.04 in1017.3 mb 0.00 in0.0 mm 0.00 in0.0 mm 0.16 in4.1 mm
02:50 PM 85.0°F29.4°C 71.4°F21.9°C 64% Calm Calm 1.1 mph1.8 kmh 30.04 in1017.3 mb 0.00 in0.0 mm 0.00 in0.0 mm 0.16 in4.1 mm
02:52 PM 85.0°F29.4°C 72.3°F22.4°C 66% Calm Calm 1.1 mph1.8 kmh 30.04 in1017.3 mb 0.00 in0.0 mm 0.00 in0.0 mm 0.16 in4.1 mm
02:54 PM 85.0°F29.4°C 72.8°F22.7°C 67% Calm Calm 2.3 mph3.7 kmh 30.03 in1016.9 mb 0.00 in0.0 mm 0.00 in0.0 mm 0.16 in4.1 mm
02:56 PM 85.0°F29.4°C 72.8°F22.7°C 67% 1.0 mph ENE1.6 kmh ENE 1.1 mph1.8 kmh 30.03 in1016.9 mb 0.00 in0.0 mm 0.00 in0.0 mm 0.16 in4.1 mm
02:58 PM 84.9°F29.4°C 70.4°F21.3°C 62% 1.0 mph SSW1.6 kmh SSW 2.3 mph3.7 kmh 30.03 in1016.9 mb 0.00 in0.0 mm 0.00 in0.0 mm 0.16 in4.1 mm
03:00 PM 84.9°F29.4°C 70.9°F21.6°C 63% Calm Calm 2.3 mph3.7 kmh 30.03 in1016.9 mb 0.00 in0.0 mm 0.00 in0.0 mm 0.16 in4.1 mm
03:02 PM 84.8°F29.3°C 72.6°F22.6°C 67% Calm Calm 1.1 mph1.8 kmh 30.03 in1016.9 mb 0.00 in0.0 mm 0.00 in0.0 mm 0.16 in4.1 mm
03:04 PM 84.8°F29.3°C 71.7°F22.1°C 65% Calm Calm 1.1 mph1.8 kmh 30.03 in1016.9 mb 0.00 in0.0 mm 0.00 in0.0 mm 0.16 in4.1 mm
03:06 PM 84.7°F29.3°C 72.5°F22.5°C 67% Calm Calm 1.1 mph1.8 kmh 30.03 in1016.9 mb 0.00 in0.0 mm 0.00 in0.0 mm 0.16 in4.1 mm
03:08 PM 84.5°F29.2°C 72.7°F22.6°C 68% Calm Calm 1.1 mph1.8 kmh 30.03 in1016.9 mb 0.00 in0.0 mm 0.00 in0.0 mm 0.16 in4.1 mm
03:10 PM 84.3°F29.1°C 72.1°F22.3°C 67% 1.0 mph SSW1.6 kmh SSW 1.1 mph1.8 kmh 30.02 in1016.6 mb 0.00 in0.0 mm 0.00 in0.0 mm 0.16 in4.1 mm
03:12 PM 84.0°F28.9°C 72.3°F22.4°C 68% Calm Calm 2.3 mph3.7 kmh 30.02 in1016.6 mb 0.00 in0.0 mm 0.00 in0.0 mm 0.16 in4.1 mm
03:14 PM 83.8°F28.8°C 72.9°F22.7°C 70% Calm Calm 2.3 mph3.7 kmh 30.02 in1016.6 mb 0.00 in0.0 mm 0.00 in0.0 mm 0.16 in4.1 mm
03:16 PM 83.5°F28.6°C 73.1°F22.8°C 71% Calm Calm -- 30.03 in1016.9 mb 0.00 in0.0 mm 0.00 in0.0 mm 0.16 in4.1 mm
03:18 PM 83.3°F28.5°C 72.5°F22.5°C 70% Calm Calm -- 30.03 in1016.9 mb 0.00 in0.0 mm 0.00 in0.0 mm 0.16 in4.1 mm
03:20 PM 83.1°F28.4°C 72.3°F22.4°C 70% Calm Calm -- 30.03 in1016.9 mb 0.00 in0.0 mm 0.00 in0.0 mm 0.16 in4.1 mm
03:22 PM 82.9°F28.3°C 72.9°F22.7°C 72% Calm Calm 1.1 mph1.8 kmh 30.03 in1016.9 mb 0.00 in0.0 mm 0.00 in0.0 mm 0.16 in4.1 mm
03:24 PM 82.7°F28.2°C 73.5°F23.1°C 74% Calm Calm -- 30.04 in1017.3 mb 0.00 in0.0 mm 0.00 in0.0 mm 0.16 in4.1 mm
03:26 PM 82.7°F28.2°C 73.1°F22.8°C 73% Calm Calm -- 30.04 in1017.3 mb 0.00 in0.0 mm 0.00 in0.0 mm 0.16 in4.1 mm
03:28 PM 82.5°F28.1°C 73.8°F23.2°C 75% Calm Calm -- 30.04 in1017.3 mb 0.00 in0.0 mm 0.00 in0.0 mm 0.16 in4.1 mm
03:30 PM 82.3°F27.9°C 72.8°F22.7°C 73% Calm Calm 1.1 mph1.8 kmh 30.04 in1017.3 mb 0.00 in0.0 mm 0.00 in0.0 mm 0.16 in4.1 mm
03:32 PM 82.2°F27.9°C 72.7°F22.6°C 73% 3.0 mph N4.8 kmh N 4.6 mph7.4 kmh 30.04 in1017.3 mb 0.00 in0.0 mm 0.00 in0.0 mm 0.16 in4.1 mm
03:34 PM 82.1°F27.8°C 72.2°F22.3°C 72% 3.0 mph N4.8 kmh N 4.6 mph7.4 kmh 30.04 in1017.3 mb 0.00 in0.0 mm 0.00 in0.0 mm 0.16 in4.1 mm
03:36 PM 82.2°F27.9°C 73.5°F23.1°C 75% 1.0 mph ENE1.6 kmh ENE 4.6 mph7.4 kmh 30.04 in1017.3 mb 0.00 in0.0 mm 0.00 in0.0 mm 0.16 in4.1 mm
03:38 PM 82.2°F27.9°C 72.2°F22.3°C 72% 2.0 mph NE3.2 kmh NE 4.6 mph7.4 kmh 30.04 in1017.3 mb 0.00 in0.0 mm 0.00 in0.0 mm 0.16 in4.1 mm
03:40 PM 82.3°F27.9°C 71.9°F22.2°C 71% 2.0 mph E3.2 kmh E 4.6 mph7.4 kmh 30.04 in1017.3 mb 0.00 in0.0 mm 0.00 in0.0 mm 0.16 in4.1 mm
03:42 PM 82.4°F28.0°C 72.4°F22.4°C 72% Calm Calm 4.6 mph7.4 kmh 30.04 in1017.3 mb 0.00 in0.0 mm 0.00 in0.0 mm 0.16 in4.1 mm
03:44 PM 82.3°F27.9°C 71.5°F21.9°C 70% 1.0 mph NNE1.6 kmh NNE 4.6 mph7.4 kmh 30.04 in1017.3 mb 0.00 in0.0 mm 0.00 in0.0 mm 0.16 in4.1 mm
03:46 PM 82.4°F28.0°C 72.0°F22.2°C 71% 1.0 mph NE1.6 kmh NE 4.6 mph7.4 kmh 30.04 in1017.3 mb 0.00 in0.0 mm 0.00 in0.0 mm 0.16 in4.1 mm
03:48 PM 82.3°F27.9°C 73.2°F22.9°C 74% Calm Calm 4.6 mph7.4 kmh 30.04 in1017.3 mb 0.00 in0.0 mm 0.00 in0.0 mm 0.16 in4.1 mm
03:50 PM 82.3°F27.9°C 71.9°F22.2°C 71% Calm Calm 4.6 mph7.4 kmh 30.04 in1017.3 mb 0.00 in0.0 mm 0.00 in0.0 mm 0.16 in4.1 mm
03:52 PM 82.3°F27.9°C 71.9°F22.2°C 71% Calm Calm 2.3 mph3.7 kmh 30.04 in1017.3 mb 0.00 in0.0 mm 0.00 in0.0 mm 0.16 in4.1 mm
03:54 PM 82.4°F28.0°C 72.4°F22.4°C 72% Calm Calm 2.3 mph3.7 kmh 30.04 in1017.3 mb 0.00 in0.0 mm 0.00 in0.0 mm 0.16 in4.1 mm
03:56 PM 82.5°F28.1°C 71.7°F22.1°C 70% 1.0 mph NW1.6 kmh NW 2.3 mph3.7 kmh 30.04 in1017.3 mb 0.00 in0.0 mm 0.00 in0.0 mm 0.16 in4.1 mm
03:58 PM 82.6°F28.1°C 72.2°F22.3°C 71% 1.0 mph NW1.6 kmh NW 2.3 mph3.7 kmh 30.04 in1017.3 mb 0.00 in0.0 mm 0.00 in0.0 mm 0.16 in4.1 mm
04:00 PM 82.6°F28.1°C 71.8°F22.1°C 70% 1.0 mph NNE1.6 kmh NNE 2.3 mph3.7 kmh 30.04 in1017.3 mb 0.00 in0.0 mm 0.00 in0.0 mm 0.16 in4.1 mm
04:02 PM 82.6°F28.1°C 72.2°F22.3°C 71% Calm Calm 2.3 mph3.7 kmh 30.04 in1017.3 mb 0.00 in0.0 mm 0.00 in0.0 mm 0.16 in4.1 mm
04:04 PM 82.7°F28.2°C 72.3°F22.4°C 71% Calm Calm 2.3 mph3.7 kmh 30.04 in1017.3 mb 0.00 in0.0 mm 0.00 in0.0 mm 0.16 in4.1 mm
04:06 PM 82.7°F28.2°C 72.3°F22.4°C 71% 1.0 mph NNE1.6 kmh NNE 1.1 mph1.8 kmh 30.04 in1017.3 mb 0.00 in0.0 mm 0.00 in0.0 mm 0.16 in4.1 mm
04:08 PM 82.7°F28.2°C 72.3°F22.4°C 71% Calm Calm 1.1 mph1.8 kmh 30.04 in1017.3 mb 0.00 in0.0 mm 0.00 in0.0 mm 0.16 in4.1 mm
04:10 PM 82.6°F28.1°C 72.6°F22.6°C 72% Calm Calm 1.1 mph1.8 kmh 30.05 in1017.6 mb 0.00 in0.0 mm 0.00 in0.0 mm 0.16 in4.1 mm
04:12 PM 82.6°F28.1°C 72.2°F22.3°C 71% Calm Calm -- 30.05 in1017.6 mb 0.00 in0.0 mm 0.00 in0.0 mm 0.16 in4.1 mm
04:14 PM 82.6°F28.1°C 72.6°F22.6°C 72% Calm Calm 1.1 mph1.8 kmh 30.05 in1017.6 mb 0.00 in0.0 mm 0.00 in0.0 mm 0.16 in4.1 mm
04:16 PM 82.5°F28.1°C 73.4°F23.0°C 74% Calm Calm -- 30.05 in1017.6 mb 0.00 in0.0 mm 0.00 in0.0 mm 0.16 in4.1 mm
04:18 PM 82.5°F28.1°C 73.4°F23.0°C 74% Calm Calm 1.1 mph1.8 kmh 30.05 in1017.6 mb 0.00 in0.0 mm 0.00 in0.0 mm 0.16 in4.1 mm
04:20 PM 82.5°F28.1°C 72.9°F22.7°C 73% Calm Calm -- 30.05 in1017.6 mb 0.00 in0.0 mm 0.00 in0.0 mm 0.16 in4.1 mm
04:22 PM 82.5°F28.1°C 72.9°F22.7°C 73% Calm Calm -- 30.05 in1017.6 mb 0.00 in0.0 mm 0.00 in0.0 mm 0.16 in4.1 mm
04:24 PM 82.4°F28.0°C 73.3°F22.9°C 74% Calm Calm -- 30.05 in1017.6 mb 0.00 in0.0 mm 0.00 in0.0 mm 0.16 in4.1 mm
04:26 PM 82.5°F28.1°C 73.4°F23.0°C 74% Calm Calm -- 30.05 in1017.6 mb 0.00 in0.0 mm 0.00 in0.0 mm 0.16 in4.1 mm
04:28 PM 82.4°F28.0°C 73.3°F22.9°C 74% Calm Calm -- 30.05 in1017.6 mb 0.00 in0.0 mm 0.00 in0.0 mm 0.16 in4.1 mm
04:30 PM 82.3°F27.9°C 73.6°F23.1°C 75% Calm Calm -- 30.05 in1017.6 mb 0.00 in0.0 mm 0.00 in0.0 mm 0.16 in4.1 mm
04:32 PM 82.3°F27.9°C 73.2°F22.9°C 74% Calm Calm -- 30.05 in1017.6 mb 0.00 in0.0 mm 0.00 in0.0 mm 0.16 in4.1 mm
04:34 PM 82.3°F27.9°C 73.6°F23.1°C 75% Calm Calm -- 30.05 in1017.6 mb 0.00 in0.0 mm 0.00 in0.0 mm 0.16 in4.1 mm
04:36 PM 82.3°F27.9°C 74.0°F23.3°C 76% Calm Calm -- 30.06 in1017.9 mb 0.00 in0.0 mm 0.00 in0.0 mm 0.16 in4.1 mm
04:38 PM 82.3°F27.9°C 74.0°F23.3°C 76% Calm Calm -- 30.06 in1017.9 mb 0.00 in0.0 mm 0.00 in0.0 mm 0.16 in4.1 mm
04:40 PM 82.4°F28.0°C 74.1°F23.4°C 76% Calm Calm -- 30.05 in1017.6 mb 0.00 in0.0 mm 0.00 in0.0 mm 0.16 in4.1 mm
04:42 PM 82.3°F27.9°C 74.3°F23.5°C 77% Calm Calm -- 30.05 in1017.6 mb 0.00 in0.0 mm 0.00 in0.0 mm 0.16 in4.1 mm
04:44 PM 82.3°F27.9°C 73.6°F23.1°C 75% Calm Calm -- 30.06 in1017.9 mb 0.00 in0.0 mm 0.00 in0.0 mm 0.16 in4.1 mm
04:46 PM 82.3°F27.9°C 73.6°F23.1°C 75% Calm Calm -- 30.06 in1017.9 mb 0.00 in0.0 mm 0.00 in0.0 mm 0.16 in4.1 mm
04:48 PM 82.2°F27.9°C 73.5°F23.1°C 75% Calm Calm 2.3 mph3.7 kmh 30.05 in1017.6 mb 0.00 in0.0 mm 0.00 in0.0 mm 0.16 in4.1 mm
04:50 PM 82.1°F27.8°C 73.4°F23.0°C 75% Calm Calm -- 30.06 in1017.9 mb 0.00 in0.0 mm 0.00 in0.0 mm 0.16 in4.1 mm
04:52 PM 82.1°F27.8°C 73.8°F23.2°C 76% Calm Calm 1.1 mph1.8 kmh 30.06 in1017.9 mb 0.00 in0.0 mm 0.00 in0.0 mm 0.16 in4.1 mm
04:54 PM 82.0°F27.8°C 72.1°F22.3°C 72% 2.0 mph NE3.2 kmh NE 3.4 mph5.5 kmh 30.06 in1017.9 mb 0.00 in0.0 mm 0.00 in0.0 mm 0.16 in4.1 mm
04:56 PM 81.8°F27.7°C 72.7°F22.6°C 74% 1.0 mph N1.6 kmh N 3.4 mph5.5 kmh 30.07 in1018.3 mb 0.00 in0.0 mm 0.00 in0.0 mm 0.16 in4.1 mm
04:58 PM 81.6°F27.6°C 71.3°F21.8°C 71% 2.0 mph N3.2 kmh N 8.0 mph12.9 kmh 30.07 in1018.3 mb 0.00 in0.0 mm 0.00 in0.0 mm 0.16 in4.1 mm
05:00 PM 81.4°F27.4°C 70.2°F21.2°C 69% 5.0 mph ENE8.0 kmh ENE 8.0 mph12.9 kmh 30.07 in1018.3 mb 0.00 in0.0 mm 0.00 in0.0 mm 0.16 in4.1 mm
05:02 PM 81.1°F27.3°C 69.5°F20.8°C 68% 5.0 mph NNE8.0 kmh NNE 8.0 mph12.9 kmh 30.07 in1018.3 mb 0.00 in0.0 mm 0.00 in0.0 mm 0.16 in4.1 mm
05:04 PM 81.0°F27.2°C 69.4°F20.8°C 68% 3.0 mph NNE4.8 kmh NNE 8.0 mph12.9 kmh 30.07 in1018.3 mb 0.00 in0.0 mm 0.00 in0.0 mm 0.16 in4.1 mm
05:06 PM 80.9°F27.2°C 69.3°F20.7°C 68% 1.0 mph N1.6 kmh N 8.0 mph12.9 kmh 30.07 in1018.3 mb 0.00 in0.0 mm 0.00 in0.0 mm 0.16 in4.1 mm
05:08 PM 80.8°F27.1°C 69.7°F20.9°C 69% 2.0 mph NW3.2 kmh NW 8.0 mph12.9 kmh 30.07 in1018.3 mb 0.00 in0.0 mm 0.00 in0.0 mm 0.16 in4.1 mm
05:10 PM 80.7°F27.1°C 69.1°F20.6°C 68% 1.0 mph NE1.6 kmh NE 8.0 mph12.9 kmh 30.07 in1018.3 mb 0.00 in0.0 mm 0.00 in0.0 mm 0.16 in4.1 mm
05:12 PM 80.6°F27.0°C 69.5°F20.8°C 69% 1.0 mph NE1.6 kmh NE 8.0 mph12.9 kmh 30.07 in1018.3 mb 0.00 in0.0 mm 0.00 in0.0 mm 0.16 in4.1 mm
05:14 PM 80.5°F26.9°C 68.9°F20.5°C 68% Calm Calm 8.0 mph12.9 kmh 30.07 in1018.3 mb 0.00 in0.0 mm 0.00 in0.0 mm 0.16 in4.1 mm
05:16 PM 80.4°F26.9°C 68.8°F20.4°C 68% 2.0 mph NE3.2 kmh NE 8.0 mph12.9 kmh 30.07 in1018.3 mb 0.00 in0.0 mm 0.00 in0.0 mm 0.16 in4.1 mm
05:18 PM 80.3°F26.8°C 68.8°F20.4°C 68% 2.0 mph N3.2 kmh N 5.7 mph9.2 kmh 30.07 in1018.3 mb 0.00 in0.0 mm 0.00 in0.0 mm 0.16 in4.1 mm
05:20 PM 80.3°F26.8°C 68.8°F20.4°C 68% 3.0 mph ENE4.8 kmh ENE 5.7 mph9.2 kmh 30.07 in1018.3 mb 0.00 in0.0 mm 0.00 in0.0 mm 0.16 in4.1 mm
05:22 PM 80.2°F26.8°C 69.1°F20.6°C 69% Calm Calm 5.7 mph9.2 kmh 30.07 in1018.3 mb 0.00 in0.0 mm 0.00 in0.0 mm 0.16 in4.1 mm
05:24 PM 80.1°F26.7°C 69.0°F20.6°C 69% 3.0 mph ENE4.8 kmh ENE 5.7 mph9.2 kmh 30.07 in1018.3 mb 0.00 in0.0 mm 0.00 in0.0 mm 0.16 in4.1 mm
05:26 PM 80.0°F26.7°C 68.9°F20.5°C 69% 2.0 mph NE3.2 kmh NE 5.7 mph9.2 kmh 30.07 in1018.3 mb 0.00 in0.0 mm 0.00 in0.0 mm 0.16 in4.1 mm
05:28 PM 79.9°F26.6°C 68.8°F20.4°C 69% 1.0 mph NNE1.6 kmh NNE 5.7 mph9.2 kmh 30.08 in1018.6 mb 0.00 in0.0 mm 0.00 in0.0 mm 0.16 in4.1 mm
05:30 PM 79.8°F26.6°C 68.7°F20.4°C 69% 1.0 mph NNE1.6 kmh NNE 5.7 mph9.2 kmh 30.08 in1018.6 mb 0.00 in0.0 mm 0.00 in0.0 mm 0.16 in4.1 mm
05:32 PM 79.7°F26.5°C 69.0°F20.6°C 70% Calm Calm 5.7 mph9.2 kmh 30.08 in1018.6 mb 0.00 in0.0 mm 0.00 in0.0 mm 0.16 in4.1 mm
05:34 PM 79.6°F26.4°C 68.5°F20.3°C 69% 2.0 mph N3.2 kmh N 5.7 mph9.2 kmh 30.08 in1018.6 mb 0.00 in0.0 mm 0.00 in0.0 mm 0.16 in4.1 mm
05:36 PM 79.5°F26.4°C 68.8°F20.4°C 70% Calm Calm 5.7 mph9.2 kmh 30.08 in1018.6 mb 0.00 in0.0 mm 0.00 in0.0 mm 0.16 in4.1 mm
05:38 PM 79.4°F26.3°C 68.7°F20.4°C 70% Calm Calm 2.3 mph3.7 kmh 30.08 in1018.6 mb 0.00 in0.0 mm 0.00 in0.0 mm 0.16 in4.1 mm
05:40 PM 79.2°F26.2°C 68.5°F20.3°C 70% 1.0 mph N1.6 kmh N 2.3 mph3.7 kmh 30.08 in1018.6 mb 0.00 in0.0 mm 0.00 in0.0 mm 0.16 in4.1 mm
05:42 PM 79.1°F26.2°C 68.5°F20.3°C 70% 1.0 mph NNE1.6 kmh NNE 4.6 mph7.4 kmh 30.08 in1018.6 mb 0.00 in0.0 mm 0.00 in0.0 mm 0.16 in4.1 mm
05:44 PM 79.1°F26.2°C 68.5°F20.3°C 70% 3.0 mph NE4.8 kmh NE 4.6 mph7.4 kmh 30.08 in1018.6 mb 0.00 in0.0 mm 0.00 in0.0 mm 0.16 in4.1 mm
05:46 PM 79.0°F26.1°C 68.8°F20.4°C 71% 3.0 mph 4.8 kmh 4.6 mph7.4 kmh 30.08 in1018.6 mb 0.00 in0.0 mm 0.00 in0.0 mm 0.16 in4.1 mm
05:48 PM 78.9°F26.1°C 68.3°F20.2°C 70% 3.0 mph NNE4.8 kmh NNE 4.6 mph7.4 kmh 30.08 in1018.6 mb 0.00 in0.0 mm 0.00 in0.0 mm 0.16 in4.1 mm
05:50 PM 78.8°F26.0°C 68.6°F20.3°C 71% 2.0 mph E3.2 kmh E 11.4 mph18.3 kmh 30.08 in1018.6 mb 0.00 in0.0 mm 0.00 in0.0 mm 0.16 in4.1 mm
05:52 PM 78.7°F25.9°C 68.5°F20.3°C 71% 1.0 mph NE1.6 kmh NE 11.4 mph18.3 kmh 30.08 in1018.6 mb 0.00 in0.0 mm 0.00 in0.0 mm 0.16 in4.1 mm
05:54 PM 78.7°F25.9°C 68.5°F20.3°C 71% 4.0 mph NE6.4 kmh NE 11.4 mph18.3 kmh 30.09 in1019.0 mb 0.00 in0.0 mm 0.00 in0.0 mm 0.16 in4.1 mm
05:56 PM 78.5°F25.8°C 68.3°F20.2°C 71% 4.0 mph ENE6.4 kmh ENE 11.4 mph18.3 kmh 30.09 in1019.0 mb 0.00 in0.0 mm 0.00 in0.0 mm 0.16 in4.1 mm
05:58 PM 78.4°F25.8°C 68.2°F20.1°C 71% Calm Calm 11.4 mph18.3 kmh 30.08 in1018.6 mb 0.00 in0.0 mm 0.00 in0.0 mm 0.16 in4.1 mm
06:00 PM 78.4°F25.8°C 68.2°F20.1°C 71% 3.0 mph E4.8 kmh E 11.4 mph18.3 kmh 30.08 in1018.6 mb 0.00 in0.0 mm 0.00 in0.0 mm 0.16 in4.1 mm
06:02 PM 78.4°F25.8°C 68.6°F20.3°C 72% Calm Calm 11.4 mph18.3 kmh 30.08 in1018.6 mb 0.00 in0.0 mm 0.00 in0.0 mm 0.16 in4.1 mm
06:04 PM 78.2°F25.7°C 68.4°F20.2°C 72% 2.0 mph NE3.2 kmh NE 11.4 mph18.3 kmh 30.09 in1019.0 mb 0.00 in0.0 mm 0.00 in0.0 mm 0.16 in4.1 mm
06:06 PM 78.1°F25.6°C 68.3°F20.2°C 72% Calm Calm 11.4 mph18.3 kmh 30.09 in1019.0 mb 0.00 in0.0 mm 0.00 in0.0 mm 0.16 in4.1 mm
06:08 PM 78.0°F25.6°C 68.6°F20.3°C 73% Calm Calm 11.4 mph18.3 kmh 30.09 in1019.0 mb 0.00 in0.0 mm 0.00 in0.0 mm 0.16 in4.1 mm
06:10 PM 77.9°F25.5°C 68.5°F20.3°C 73% Calm Calm 5.7 mph9.2 kmh 30.09 in1019.0 mb 0.00 in0.0 mm 0.00 in0.0 mm 0.16 in4.1 mm
06:12 PM 77.8°F25.4°C 68.4°F20.2°C 73% Calm Calm 5.7 mph9.2 kmh 30.09 in1019.0 mb 0.00 in0.0 mm 0.00 in0.0 mm 0.16 in4.1 mm
06:14 PM 77.7°F25.4°C 68.7°F20.4°C 74% Calm Calm 5.7 mph9.2 kmh 30.09 in1019.0 mb 0.00 in0.0 mm 0.00 in0.0 mm 0.16 in4.1 mm
06:16 PM 77.5°F25.3°C 68.1°F20.1°C 73% 1.0 mph NE1.6 kmh NE 5.7 mph9.2 kmh 30.10 in1019.3 mb 0.00 in0.0 mm 0.00 in0.0 mm 0.16 in4.1 mm
06:18 PM 77.4°F25.2°C 68.0°F20.0°C 73% 1.0 mph ENE1.6 kmh ENE 6.8 mph10.9 kmh 30.10 in1019.3 mb 0.00 in0.0 mm 0.00 in0.0 mm 0.16 in4.1 mm
06:20 PM 77.3°F25.2°C 68.0°F20.0°C 73% 1.0 mph NE1.6 kmh NE 6.8 mph10.9 kmh 30.10 in1019.3 mb 0.00 in0.0 mm 0.00 in0.0 mm 0.16 in4.1 mm
06:22 PM 77.2°F25.1°C 67.9°F19.9°C 73% 3.0 mph ENE4.8 kmh ENE 6.8 mph10.9 kmh 30.10 in1019.3 mb 0.00 in0.0 mm 0.00 in0.0 mm 0.16 in4.1 mm
06:24 PM 77.1°F25.1°C 68.2°F20.1°C 74% Calm Calm 6.8 mph10.9 kmh 30.10 in1019.3 mb 0.00 in0.0 mm 0.00 in0.0 mm 0.16 in4.1 mm
06:26 PM 77.1°F25.1°C 68.2°F20.1°C 74% 1.0 mph NE1.6 kmh NE 6.8 mph10.9 kmh 30.10 in1019.3 mb 0.00 in0.0 mm 0.00 in0.0 mm 0.16 in4.1 mm
06:28 PM 77.0°F25.0°C 68.1°F20.1°C 74% 2.0 mph NE3.2 kmh NE 6.8 mph10.9 kmh 30.10 in1019.3 mb 0.00 in0.0 mm 0.00 in0.0 mm 0.16 in4.1 mm
06:30 PM 77.0°F25.0°C 68.1°F20.1°C 74% Calm Calm 6.8 mph10.9 kmh 30.10 in1019.3 mb 0.00 in0.0 mm 0.00 in0.0 mm 0.16 in4.1 mm
06:32 PM 76.9°F24.9°C 68.0°F20.0°C 74% 2.0 mph NE3.2 kmh NE 6.8 mph10.9 kmh 30.10 in1019.3 mb 0.00 in0.0 mm 0.00 in0.0 mm 0.16 in4.1 mm
06:34 PM 76.9°F24.9°C 68.0°F20.0°C 74% Calm Calm 6.8 mph10.9 kmh 30.10 in1019.3 mb 0.00 in0.0 mm 0.00 in0.0 mm 0.16 in4.1 mm
06:36 PM 76.8°F24.9°C 67.5°F19.7°C 73% 2.0 mph NE3.2 kmh NE 6.8 mph10.9 kmh 30.10 in1019.3 mb 0.00 in0.0 mm 0.00 in0.0 mm 0.16 in4.1 mm
06:38 PM 76.7°F24.8°C 67.4°F19.7°C 73% 1.0 mph NE1.6 kmh NE 3.4 mph5.5 kmh 30.10 in1019.3 mb 0.00 in0.0 mm 0.00 in0.0 mm 0.16 in4.1 mm
06:40 PM 76.7°F24.8°C 67.8°F19.9°C 74% 3.0 mph NNE4.8 kmh NNE 3.4 mph5.5 kmh 30.10 in1019.3 mb 0.00 in0.0 mm 0.00 in0.0 mm 0.16 in4.1 mm
06:42 PM 76.6°F24.8°C 67.3°F19.6°C 73% 2.0 mph NE3.2 kmh NE 3.4 mph5.5 kmh 30.10 in1019.3 mb 0.00 in0.0 mm 0.00 in0.0 mm 0.16 in4.1 mm
06:44 PM 76.6°F24.8°C 67.7°F19.8°C 74% 1.0 mph NE1.6 kmh NE 3.4 mph5.5 kmh 30.10 in1019.3 mb 0.00 in0.0 mm 0.00 in0.0 mm 0.16 in4.1 mm
06:46 PM 76.6°F24.8°C 67.7°F19.8°C 74% Calm Calm 3.4 mph5.5 kmh 30.11 in1019.6 mb 0.00 in0.0 mm 0.00 in0.0 mm 0.16 in4.1 mm
06:48 PM 76.5°F24.7°C 67.6°F19.8°C 74% 4.0 mph NE6.4 kmh NE 4.6 mph7.4 kmh 30.10 in1019.3 mb 0.00 in0.0 mm 0.00 in0.0 mm 0.16 in4.1 mm
06:50 PM 76.4°F24.7°C 67.5°F19.7°C 74% 1.0 mph N1.6 kmh N 5.7 mph9.2 kmh 30.11 in1019.6 mb 0.00 in0.0 mm 0.00 in0.0 mm 0.16 in4.1 mm
06:52 PM 76.3°F24.6°C 67.4°F19.7°C 74% 2.0 mph NE3.2 kmh NE 5.7 mph9.2 kmh 30.11 in1019.6 mb 0.00 in0.0 mm 0.00 in0.0 mm 0.16 in4.1 mm
06:54 PM 76.3°F24.6°C 67.8°F19.9°C 75% 1.0 mph NNW1.6 kmh NNW 5.7 mph9.2 kmh 30.11 in1019.6 mb 0.00 in0.0 mm 0.00 in0.0 mm 0.16 in4.1 mm
06:56 PM 76.2°F24.6°C 67.7°F19.8°C 75% 3.0 mph N4.8 kmh N 5.7 mph9.2 kmh 30.11 in1019.6 mb 0.00 in0.0 mm 0.00 in0.0 mm 0.16 in4.1 mm
06:58 PM 76.2°F24.6°C 67.7°F19.8°C 75% 1.0 mph NNE1.6 kmh NNE 5.7 mph9.2 kmh 30.11 in1019.6 mb 0.00 in0.0 mm 0.00 in0.0 mm 0.16 in4.1 mm
07:00 PM 76.1°F24.5°C 67.6°F19.8°C 75% 1.0 mph NNE1.6 kmh NNE 5.7 mph9.2 kmh 30.11 in1019.6 mb 0.00 in0.0 mm 0.00 in0.0 mm 0.16 in4.1 mm
07:02 PM 76.0°F24.4°C 67.5°F19.7°C 75% 4.0 mph NE6.4 kmh NE 6.8 mph10.9 kmh 30.11 in1019.6 mb 0.00 in0.0 mm 0.00 in0.0 mm 0.16 in4.1 mm
07:04 PM 76.0°F24.4°C 67.5°F19.7°C 75% 2.0 mph E3.2 kmh E 6.8 mph10.9 kmh 30.11 in1019.6 mb 0.00 in0.0 mm 0.00 in0.0 mm 0.16 in4.1 mm
07:06 PM 76.0°F24.4°C 67.5°F19.7°C 75% 3.0 mph ENE4.8 kmh ENE 6.8 mph10.9 kmh 30.11 in1019.6 mb 0.00 in0.0 mm 0.00 in0.0 mm 0.16 in4.1 mm
07:08 PM 75.9°F24.4°C 67.8°F19.9°C 76% 2.0 mph ENE3.2 kmh ENE 10.3 mph16.6 kmh 30.11 in1019.6 mb 0.00 in0.0 mm 0.00 in0.0 mm 0.16 in4.1 mm
07:10 PM 75.8°F24.3°C 67.7°F19.8°C 76% 2.0 mph ENE3.2 kmh ENE 10.3 mph16.6 kmh 30.11 in1019.6 mb 0.00 in0.0 mm 0.00 in0.0 mm 0.16 in4.1 mm
07:12 PM 75.8°F24.3°C 67.7°F19.8°C 76% 1.0 mph ENE1.6 kmh ENE 10.3 mph16.6 kmh 30.11 in1019.6 mb 0.00 in0.0 mm 0.00 in0.0 mm 0.16 in4.1 mm
07:14 PM 75.7°F24.3°C 68.0°F20.0°C 77% 1.0 mph NE1.6 kmh NE 10.3 mph16.6 kmh 30.12 in1020.0 mb 0.00 in0.0 mm 0.00 in0.0 mm 0.16 in4.1 mm
07:16 PM 75.7°F24.3°C 68.0°F20.0°C 77% 5.0 mph ENE8.0 kmh ENE 10.3 mph16.6 kmh 30.12 in1020.0 mb 0.00 in0.0 mm 0.00 in0.0 mm 0.16 in4.1 mm
07:18 PM 75.6°F24.2°C 67.9°F19.9°C 77% Calm Calm 10.3 mph16.6 kmh 30.12 in1020.0 mb 0.00 in0.0 mm 0.00 in0.0 mm 0.16 in4.1 mm
07:20 PM 75.5°F24.2°C 67.8°F19.9°C 77% Calm Calm 10.3 mph16.6 kmh 30.12 in1020.0 mb 0.00 in0.0 mm 0.00 in0.0 mm 0.16 in4.1 mm
07:22 PM 75.4°F24.1°C 68.0°F20.0°C 78% 2.0 mph N3.2 kmh N 10.3 mph16.6 kmh 30.12 in1020.0 mb 0.00 in0.0 mm 0.00 in0.0 mm 0.16 in4.1 mm
07:24 PM 75.3°F24.1°C 68.0°F20.0°C 78% 3.0 mph NE4.8 kmh NE 10.3 mph16.6 kmh 30.12 in1020.0 mb 0.00 in0.0 mm 0.00 in0.0 mm 0.16 in4.1 mm
07:26 PM 75.3°F24.1°C 68.0°F20.0°C 78% 2.0 mph NE3.2 kmh NE 10.3 mph16.6 kmh 30.12 in1020.0 mb 0.00 in0.0 mm 0.00 in0.0 mm 0.16 in4.1 mm
07:28 PM 75.2°F24.0°C 68.2°F20.1°C 79% 2.0 mph N3.2 kmh N 5.7 mph9.2 kmh 30.12 in1020.0 mb 0.00 in0.0 mm 0.00 in0.0 mm 0.16 in4.1 mm
07:30 PM 75.1°F23.9°C 68.1°F20.1°C 79% Calm Calm 5.7 mph9.2 kmh 30.13 in1020.3 mb 0.00 in0.0 mm 0.00 in0.0 mm 0.16 in4.1 mm
07:32 PM 75.0°F23.9°C 68.0°F20.0°C 79% 3.0 mph ENE4.8 kmh ENE 5.7 mph9.2 kmh 30.13 in1020.3 mb 0.00 in0.0 mm 0.00 in0.0 mm 0.16 in4.1 mm
07:34 PM 75.0°F23.9°C 68.0°F20.0°C 79% Calm Calm 5.7 mph9.2 kmh 30.14 in1020.7 mb 0.00 in0.0 mm 0.00 in0.0 mm 0.16 in4.1 mm
07:36 PM 74.9°F23.8°C 68.3°F20.2°C 80% 1.0 mph SE1.6 kmh SE 5.7 mph9.2 kmh 30.14 in1020.7 mb 0.00 in0.0 mm 0.00 in0.0 mm 0.16 in4.1 mm
07:38 PM 74.8°F23.8°C 68.2°F20.1°C 80% Calm Calm 4.6 mph7.4 kmh 30.14 in1020.7 mb 0.00 in0.0 mm 0.00 in0.0 mm 0.16 in4.1 mm
07:40 PM 74.8°F23.8°C 68.2°F20.1°C 80% 1.0 mph NNE1.6 kmh NNE 4.6 mph7.4 kmh 30.14 in1020.7 mb 0.00 in0.0 mm 0.00 in0.0 mm 0.16 in4.1 mm
07:42 PM 74.7°F23.7°C 68.1°F20.1°C 80% Calm Calm 4.6 mph7.4 kmh 30.14 in1020.7 mb 0.00 in0.0 mm 0.00 in0.0 mm 0.16 in4.1 mm
07:44 PM 74.6°F23.7°C 68.0°F20.0°C 80% 4.0 mph E6.4 kmh E 8.0 mph12.9 kmh 30.14 in1020.7 mb 0.00 in0.0 mm 0.00 in0.0 mm 0.16 in4.1 mm
07:46 PM 74.6°F23.7°C 68.0°F20.0°C 80% 3.0 mph NE4.8 kmh NE 8.0 mph12.9 kmh 30.15 in1021.0 mb 0.00 in0.0 mm 0.00 in0.0 mm 0.16 in4.1 mm
07:48 PM 74.4°F23.6°C 67.8°F19.9°C 80% 1.0 mph NE1.6 kmh NE 8.0 mph12.9 kmh 30.15 in1021.0 mb 0.00 in0.0 mm 0.00 in0.0 mm 0.16 in4.1 mm
07:50 PM 74.3°F23.5°C 67.7°F19.8°C 80% 3.0 mph NE4.8 kmh NE 8.0 mph12.9 kmh 30.14 in1020.7 mb 0.00 in0.0 mm 0.00 in0.0 mm 0.16 in4.1 mm
07:52 PM 74.3°F23.5°C 67.7°F19.8°C 80% 3.0 mph NE4.8 kmh NE 8.0 mph12.9 kmh 30.14 in1020.7 mb 0.00 in0.0 mm 0.00 in0.0 mm 0.16 in4.1 mm
07:54 PM 74.2°F23.4°C 68.0°F20.0°C 81% 1.0 mph N1.6 kmh N 8.0 mph12.9 kmh 30.14 in1020.7 mb 0.00 in0.0 mm 0.00 in0.0 mm 0.16 in4.1 mm
07:56 PM 74.1°F23.4°C 67.9°F19.9°C 81% 6.0 mph NE9.7 kmh NE 8.0 mph12.9 kmh 30.14 in1020.7 mb 0.00 in0.0 mm 0.00 in0.0 mm 0.16 in4.1 mm
07:58 PM 74.0°F23.3°C 67.8°F19.9°C 81% 2.0 mph N3.2 kmh N 8.0 mph12.9 kmh 30.14 in1020.7 mb 0.00 in0.0 mm 0.00 in0.0 mm 0.16 in4.1 mm
08:00 PM 73.9°F23.3°C 67.7°F19.8°C 81% 1.0 mph N1.6 kmh N 8.0 mph12.9 kmh 30.14 in1020.7 mb 0.00 in0.0 mm 0.00 in0.0 mm 0.16 in4.1 mm
08:02 PM 73.8°F23.2°C 67.6°F19.8°C 81% 2.0 mph NE3.2 kmh NE 8.0 mph12.9 kmh 30.15 in1021.0 mb 0.00 in0.0 mm 0.00 in0.0 mm 0.16 in4.1 mm
08:04 PM 73.7°F23.2°C 67.9°F19.9°C 82% 2.0 mph NW3.2 kmh NW 8.0 mph12.9 kmh 30.15 in1021.0 mb 0.00 in0.0 mm 0.00 in0.0 mm 0.16 in4.1 mm
08:06 PM 73.6°F23.1°C 67.8°F19.9°C 82% 2.0 mph NE3.2 kmh NE 8.0 mph12.9 kmh 30.15 in1021.0 mb 0.00 in0.0 mm 0.00 in0.0 mm 0.16 in4.1 mm
08:08 PM 73.5°F23.1°C 67.7°F19.8°C 82% Calm Calm 8.0 mph12.9 kmh 30.15 in1021.0 mb 0.00 in0.0 mm 0.00 in0.0 mm 0.16 in4.1 mm
08:10 PM 73.4°F23.0°C 67.6°F19.8°C 82% 1.0 mph E1.6 kmh E 8.0 mph12.9 kmh 30.15 in1021.0 mb 0.00 in0.0 mm 0.00 in0.0 mm 0.16 in4.1 mm
08:12 PM 73.3°F22.9°C 67.5°F19.7°C 82% Calm Calm 8.0 mph12.9 kmh 30.15 in1021.0 mb 0.00 in0.0 mm 0.00 in0.0 mm 0.16 in4.1 mm
08:14 PM 73.3°F22.9°C 67.5°F19.7°C 82% 1.0 mph NW1.6 kmh NW 8.0 mph12.9 kmh 30.15 in1021.0 mb 0.00 in0.0 mm 0.00 in0.0 mm 0.16 in4.1 mm
08:16 PM 73.2°F22.9°C 67.7°F19.8°C 83% 1.0 mph NNE1.6 kmh NNE 8.0 mph12.9 kmh 30.16 in1021.3 mb 0.00 in0.0 mm 0.00 in0.0 mm 0.16 in4.1 mm
08:18 PM 73.1°F22.8°C 67.6°F19.8°C 83% Calm Calm 8.0 mph12.9 kmh 30.15 in1021.0 mb 0.00 in0.0 mm 0.00 in0.0 mm 0.16 in4.1 mm
08:20 PM 73.0°F22.8°C 67.5°F19.7°C 83% 2.0 mph NE3.2 kmh NE 8.0 mph12.9 kmh 30.16 in1021.3 mb 0.00 in0.0 mm 0.00 in0.0 mm 0.16 in4.1 mm
08:22 PM 73.0°F22.8°C 67.5°F19.7°C 83% 1.0 mph NE1.6 kmh NE 3.4 mph5.5 kmh 30.16 in1021.3 mb 0.00 in0.0 mm 0.00 in0.0 mm 0.16 in4.1 mm
08:24 PM 72.9°F22.7°C 67.4°F19.7°C 83% 2.0 mph ENE3.2 kmh ENE 4.6 mph7.4 kmh 30.16 in1021.3 mb 0.00 in0.0 mm 0.00 in0.0 mm 0.16 in4.1 mm
08:26 PM 72.8°F22.7°C 67.0°F19.4°C 82% 3.0 mph N4.8 kmh N 8.0 mph12.9 kmh 30.16 in1021.3 mb 0.00 in0.0 mm 0.00 in0.0 mm 0.16 in4.1 mm
08:28 PM 72.6°F22.6°C 66.8°F19.3°C 82% 1.0 mph NE1.6 kmh NE 8.0 mph12.9 kmh 30.16 in1021.3 mb 0.00 in0.0 mm 0.00 in0.0 mm 0.16 in4.1 mm
08:30 PM 72.6°F22.6°C 66.8°F19.3°C 82% 2.0 mph NE3.2 kmh NE 8.0 mph12.9 kmh 30.16 in1021.3 mb 0.00 in0.0 mm 0.00 in0.0 mm 0.16 in4.1 mm
08:32 PM 72.5°F22.5°C 66.7°F19.3°C 82% 2.0 mph SE3.2 kmh SE 8.0 mph12.9 kmh 30.16 in1021.3 mb 0.00 in0.0 mm 0.00 in0.0 mm 0.16 in4.1 mm
08:34 PM 72.4°F22.4°C 66.9°F19.4°C 83% Calm Calm 8.0 mph12.9 kmh 30.16 in1021.3 mb 0.00 in0.0 mm 0.00 in0.0 mm 0.16 in4.1 mm
08:36 PM 72.3°F22.4°C 66.8°F19.3°C 83% 3.0 mph NE4.8 kmh NE 8.0 mph12.9 kmh 30.16 in1021.3 mb 0.00 in0.0 mm 0.00 in0.0 mm 0.16 in4.1 mm
08:38 PM 72.3°F22.4°C 66.8°F19.3°C 83% 2.0 mph NE3.2 kmh NE 8.0 mph12.9 kmh 30.16 in1021.3 mb 0.00 in0.0 mm 0.00 in0.0 mm 0.16 in4.1 mm
08:40 PM 72.2°F22.3°C 66.7°F19.3°C 83% 3.0 mph NW4.8 kmh NW 8.0 mph12.9 kmh 30.16 in1021.3 mb 0.00 in0.0 mm 0.00 in0.0 mm 0.16 in4.1 mm
08:42 PM 72.1°F22.3°C 66.6°F19.2°C 83% Calm Calm 8.0 mph12.9 kmh 30.16 in1021.3 mb 0.00 in0.0 mm 0.00 in0.0 mm 0.16 in4.1 mm
08:44 PM 72.0°F22.2°C 66.5°F19.2°C 83% 1.0 mph NE1.6 kmh NE 8.0 mph12.9 kmh 30.16 in1021.3 mb 0.00 in0.0 mm 0.00 in0.0 mm 0.16 in4.1 mm
08:46 PM 72.0°F22.2°C 66.5°F19.2°C 83% 3.0 mph NE4.8 kmh NE 8.0 mph12.9 kmh 30.16 in1021.3 mb 0.00 in0.0 mm 0.00 in0.0 mm 0.16 in4.1 mm
08:48 PM 71.9°F22.2°C 66.4°F19.1°C 83% 1.0 mph E1.6 kmh E 8.0 mph12.9 kmh 30.16 in1021.3 mb 0.00 in0.0 mm 0.00 in0.0 mm 0.16 in4.1 mm
08:50 PM 71.9°F22.2°C 66.4°F19.1°C 83% 1.0 mph NE1.6 kmh NE 8.0 mph12.9 kmh 30.16 in1021.3 mb 0.00 in0.0 mm 0.00 in0.0 mm 0.16 in4.1 mm
08:52 PM 71.8°F22.1°C 66.7°F19.3°C 84% Calm Calm 8.0 mph12.9 kmh 30.16 in1021.3 mb 0.00 in0.0 mm 0.00 in0.0 mm 0.16 in4.1 mm
08:54 PM 71.7°F22.1°C 66.6°F19.2°C 84% 2.0 mph NE3.2 kmh NE 8.0 mph12.9 kmh 30.17 in1021.7 mb 0.00 in0.0 mm 0.00 in0.0 mm 0.16 in4.1 mm
08:56 PM 71.6°F22.0°C 66.5°F19.2°C 84% 1.0 mph SE1.6 kmh SE 8.0 mph12.9 kmh 30.17 in1021.7 mb 0.00 in0.0 mm 0.00 in0.0 mm 0.16 in4.1 mm
08:58 PM 71.5°F21.9°C 66.4°F19.1°C 84% Calm Calm 4.6 mph7.4 kmh 30.17 in1021.7 mb 0.00 in0.0 mm 0.00 in0.0 mm 0.16 in4.1 mm
09:00 PM 71.4°F21.9°C 66.3°F19.1°C 84% 1.0 mph E1.6 kmh E 4.6 mph7.4 kmh 30.17 in1021.7 mb 0.00 in0.0 mm 0.00 in0.0 mm 0.16 in4.1 mm
09:02 PM 71.3°F21.8°C 66.2°F19.0°C 84% 1.0 mph NE1.6 kmh NE 4.6 mph7.4 kmh 30.17 in1021.7 mb 0.00 in0.0 mm 0.00 in0.0 mm 0.16 in4.1 mm
09:04 PM 71.3°F21.8°C 66.2°F19.0°C 84% 1.0 mph NNE1.6 kmh NNE 4.6 mph7.4 kmh 30.17 in1021.7 mb 0.00 in0.0 mm 0.00 in0.0 mm 0.16 in4.1 mm
09:06 PM 71.2°F21.8°C 66.4°F19.1°C 85% Calm Calm 4.6 mph7.4 kmh 30.17 in1021.7 mb 0.00 in0.0 mm 0.00 in0.0 mm 0.16 in4.1 mm
09:08 PM 71.2°F21.8°C 66.1°F18.9°C 84% 1.0 mph NNE1.6 kmh NNE 2.3 mph3.7 kmh 30.18 in1022.0 mb 0.00 in0.0 mm 0.00 in0.0 mm 0.16 in4.1 mm
09:10 PM 71.1°F21.7°C 66.4°F19.1°C 85% Calm Calm 2.3 mph3.7 kmh 30.18 in1022.0 mb 0.00 in0.0 mm 0.00 in0.0 mm 0.16 in4.1 mm
09:12 PM 71.1°F21.7°C 66.4°F19.1°C 85% Calm Calm 2.3 mph3.7 kmh 30.18 in1022.0 mb 0.00 in0.0 mm 0.00 in0.0 mm 0.16 in4.1 mm
09:14 PM 71.1°F21.7°C 66.4°F19.1°C 85% 1.0 mph ENE1.6 kmh ENE 2.3 mph3.7 kmh 30.18 in1022.0 mb 0.00 in0.0 mm 0.00 in0.0 mm 0.16 in4.1 mm
09:16 PM 71.1°F21.7°C 66.4°F19.1°C 85% 1.0 mph ENE1.6 kmh ENE 2.3 mph3.7 kmh 30.18 in1022.0 mb 0.00 in0.0 mm 0.00 in0.0 mm 0.16 in4.1 mm
09:18 PM 71.0°F21.7°C 66.3°F19.1°C 85% Calm Calm 3.4 mph5.5 kmh 30.18 in1022.0 mb 0.00 in0.0 mm 0.00 in0.0 mm 0.16 in4.1 mm
09:20 PM 71.0°F21.7°C 66.3°F19.1°C 85% Calm Calm 3.4 mph5.5 kmh 30.18 in1022.0 mb 0.00 in0.0 mm 0.00 in0.0 mm 0.16 in4.1 mm
09:22 PM 71.0°F21.7°C 66.3°F19.1°C 85% Calm Calm 3.4 mph5.5 kmh 30.18 in1022.0 mb 0.00 in0.0 mm 0.00 in0.0 mm 0.16 in4.1 mm
09:24 PM 70.9°F21.6°C 66.2°F19.0°C 85% Calm Calm 3.4 mph5.5 kmh 30.18 in1022.0 mb 0.00 in0.0 mm 0.00 in0.0 mm 0.16 in4.1 mm
09:26 PM 70.9°F21.6°C 66.2°F19.0°C 85% 1.0 mph NE1.6 kmh NE 1.1 mph1.8 kmh 30.18 in1022.0 mb 0.00 in0.0 mm 0.00 in0.0 mm 0.16 in4.1 mm
09:28 PM 70.8°F21.6°C 66.1°F18.9°C 85% 3.0 mph NE4.8 kmh NE 3.4 mph5.5 kmh 30.18 in1022.0 mb 0.00 in0.0 mm 0.00 in0.0 mm 0.16 in4.1 mm
09:30 PM 70.8°F21.6°C 66.1°F18.9°C 85% 1.0 mph NNE1.6 kmh NNE 3.4 mph5.5 kmh 30.18 in1022.0 mb 0.00 in0.0 mm 0.00 in0.0 mm 0.16 in4.1 mm
09:32 PM 70.8°F21.6°C 66.1°F18.9°C 85% 1.0 mph NE1.6 kmh NE 4.6 mph7.4 kmh 30.18 in1022.0 mb 0.00 in0.0 mm 0.00 in0.0 mm 0.16 in4.1 mm
09:34 PM 70.7°F21.5°C 66.0°F18.9°C 85% 1.0 mph NE1.6 kmh NE 4.6 mph7.4 kmh 30.18 in1022.0 mb 0.00 in0.0 mm 0.00 in0.0 mm 0.16 in4.1 mm
09:36 PM 70.7°F21.5°C 66.0°F18.9°C 85% Calm Calm 4.6 mph7.4 kmh 30.18 in1022.0 mb 0.00 in0.0 mm 0.00 in0.0 mm 0.16 in4.1 mm
09:38 PM 70.7°F21.5°C 66.0°F18.9°C 85% 2.0 mph NE3.2 kmh NE 4.6 mph7.4 kmh 30.18 in1022.0 mb 0.00 in0.0 mm 0.00 in0.0 mm 0.16 in4.1 mm
09:40 PM 70.6°F21.4°C 65.9°F18.8°C 85% Calm Calm 4.6 mph7.4 kmh 30.18 in1022.0 mb 0.00 in0.0 mm 0.00 in0.0 mm 0.16 in4.1 mm
09:42 PM 70.6°F21.4°C 66.2°F19.0°C 86% 1.0 mph ENE1.6 kmh ENE 4.6 mph7.4 kmh 30.18 in1022.0 mb 0.00 in0.0 mm 0.00 in0.0 mm 0.16 in4.1 mm
09:44 PM 70.6°F21.4°C 66.2°F19.0°C 86% 1.0 mph NE1.6 kmh NE 4.6 mph7.4 kmh 30.18 in1022.0 mb 0.00 in0.0 mm 0.00 in0.0 mm 0.16 in4.1 mm
09:46 PM 70.5°F21.4°C 66.1°F18.9°C 86% 2.0 mph ENE3.2 kmh ENE 4.6 mph7.4 kmh 30.18 in1022.0 mb 0.00 in0.0 mm 0.00 in0.0 mm 0.16 in4.1 mm
09:48 PM 70.5°F21.4°C 66.1°F18.9°C 86% Calm Calm 4.6 mph7.4 kmh 30.18 in1022.0 mb 0.00 in0.0 mm 0.00 in0.0 mm 0.16 in4.1 mm
09:50 PM 70.4°F21.3°C 66.0°F18.9°C 86% 1.0 mph E1.6 kmh E 4.6 mph7.4 kmh 30.18 in1022.0 mb 0.00 in0.0 mm 0.00 in0.0 mm 0.16 in4.1 mm
09:52 PM 70.4°F21.3°C 66.0°F18.9°C 86% 2.0 mph NE3.2 kmh NE 3.4 mph5.5 kmh 30.18 in1022.0 mb 0.00 in0.0 mm 0.00 in0.0 mm 0.16 in4.1 mm
09:54 PM 70.4°F21.3°C 66.0°F18.9°C 86% 2.0 mph NE3.2 kmh NE 3.4 mph5.5 kmh 30.18 in1022.0 mb 0.00 in0.0 mm 0.00 in0.0 mm 0.16 in4.1 mm
09:56 PM 70.3°F21.3°C 65.9°F18.8°C 86% 1.0 mph NNE1.6 kmh NNE 4.6 mph7.4 kmh 30.18 in1022.0 mb 0.00 in0.0 mm 0.00 in0.0 mm 0.16 in4.1 mm
09:58 PM 70.3°F21.3°C 65.9°F18.8°C 86% 3.0 mph NE4.8 kmh NE 4.6 mph7.4 kmh 30.18 in1022.0 mb 0.00 in0.0 mm 0.00 in0.0 mm 0.16 in4.1 mm
10:00 PM 70.3°F21.3°C 65.9°F18.8°C 86% 1.0 mph NE1.6 kmh NE 4.6 mph7.4 kmh 30.18 in1022.0 mb 0.00 in0.0 mm 0.00 in0.0 mm 0.16 in4.1 mm
10:02 PM 70.3°F21.3°C 65.9°F18.8°C 86% 1.0 mph NE1.6 kmh NE 5.7 mph9.2 kmh 30.18 in1022.0 mb 0.00 in0.0 mm 0.00 in0.0 mm 0.16 in4.1 mm
10:04 PM 70.2°F21.2°C 65.8°F18.8°C 86% 1.0 mph N1.6 kmh N 5.7 mph9.2 kmh 30.18 in1022.0 mb 0.00 in0.0 mm 0.00 in0.0 mm 0.16 in4.1 mm
10:06 PM 70.2°F21.2°C 65.8°F18.8°C 86% 2.0 mph NE3.2 kmh NE 5.7 mph9.2 kmh 30.18 in1022.0 mb 0.00 in0.0 mm 0.00 in0.0 mm 0.16 in4.1 mm
10:08 PM 70.2°F21.2°C 65.8°F18.8°C 86% 1.0 mph N1.6 kmh N 5.7 mph9.2 kmh 30.19 in1022.4 mb 0.00 in0.0 mm 0.00 in0.0 mm 0.16 in4.1 mm
10:10 PM 70.2°F21.2°C 65.8°F18.8°C 86% 2.0 mph N3.2 kmh N 5.7 mph9.2 kmh 30.19 in1022.4 mb 0.00 in0.0 mm 0.00 in0.0 mm 0.16 in4.1 mm
10:12 PM 70.1°F21.2°C 65.7°F18.7°C 86% 2.0 mph NE3.2 kmh NE 5.7 mph9.2 kmh 30.19 in1022.4 mb 0.00 in0.0 mm 0.00 in0.0 mm 0.16 in4.1 mm
10:14 PM 70.1°F21.2°C 65.7°F18.7°C 86% 1.0 mph N1.6 kmh N 5.7 mph9.2 kmh 30.19 in1022.4 mb 0.00 in0.0 mm 0.00 in0.0 mm 0.16 in4.1 mm
10:16 PM 70.0°F21.1°C 65.6°F18.7°C 86% Calm Calm 5.7 mph9.2 kmh 30.19 in1022.4 mb 0.00 in0.0 mm 0.00 in0.0 mm 0.16 in4.1 mm
10:18 PM 69.9°F21.1°C 65.5°F18.6°C 86% 2.0 mph NNE3.2 kmh NNE 5.7 mph9.2 kmh 30.19 in1022.4 mb 0.00 in0.0 mm 0.00 in0.0 mm 0.16 in4.1 mm
10:20 PM 69.9°F21.1°C 65.5°F18.6°C 86% 2.0 mph E3.2 kmh E 5.7 mph9.2 kmh 30.19 in1022.4 mb 0.00 in0.0 mm 0.00 in0.0 mm 0.16 in4.1 mm
10:22 PM 69.9°F21.1°C 65.5°F18.6°C 86% 1.0 mph NE1.6 kmh NE 5.7 mph9.2 kmh 30.20 in1022.7 mb 0.00 in0.0 mm 0.00 in0.0 mm 0.16 in4.1 mm
10:24 PM 69.8°F21.0°C 65.4°F18.6°C 86% Calm Calm 5.7 mph9.2 kmh 30.19 in1022.4 mb 0.00 in0.0 mm 0.00 in0.0 mm 0.16 in4.1 mm
10:26 PM 69.7°F20.9°C 65.3°F18.5°C 86% Calm Calm 5.7 mph9.2 kmh 30.20 in1022.7 mb 0.00 in0.0 mm 0.00 in0.0 mm 0.16 in4.1 mm
10:28 PM 69.8°F21.0°C 65.4°F18.6°C 86% 2.0 mph ENE3.2 kmh ENE 5.7 mph9.2 kmh 30.19 in1022.4 mb 0.00 in0.0 mm 0.00 in0.0 mm 0.16 in4.1 mm
10:30 PM 69.7°F20.9°C 65.6°F18.7°C 87% 2.0 mph NNE3.2 kmh NNE 6.8 mph10.9 kmh 30.19 in1022.4 mb 0.00 in0.0 mm 0.00 in0.0 mm 0.16 in4.1 mm
10:32 PM 69.7°F20.9°C 65.6°F18.7°C 87% 1.0 mph NE1.6 kmh NE 6.8 mph10.9 kmh 30.19 in1022.4 mb 0.00 in0.0 mm 0.00 in0.0 mm 0.16 in4.1 mm
10:34 PM 69.6°F20.9°C 65.6°F18.7°C 87% 1.0 mph NE1.6 kmh NE 6.8 mph10.9 kmh 30.19 in1022.4 mb 0.00 in0.0 mm 0.00 in0.0 mm 0.16 in4.1 mm
10:36 PM 69.6°F20.9°C 65.6°F18.7°C 87% 2.0 mph ESE3.2 kmh ESE 6.8 mph10.9 kmh 30.19 in1022.4 mb 0.00 in0.0 mm 0.00 in0.0 mm 0.16 in4.1 mm
10:38 PM 69.5°F20.8°C 65.5°F18.6°C 87% Calm Calm 6.8 mph10.9 kmh 30.19 in1022.4 mb 0.00 in0.0 mm 0.00 in0.0 mm 0.16 in4.1 mm
10:40 PM 69.5°F20.8°C 65.5°F18.6°C 87% Calm Calm 6.8 mph10.9 kmh 30.19 in1022.4 mb 0.00 in0.0 mm 0.00 in0.0 mm 0.16 in4.1 mm
10:42 PM 69.5°F20.8°C 65.5°F18.6°C 87% 2.0 mph NNE3.2 kmh NNE 3.4 mph5.5 kmh 30.19 in1022.4 mb 0.00 in0.0 mm 0.00 in0.0 mm 0.16 in4.1 mm
10:44 PM 69.5°F20.8°C 65.5°F18.6°C 87% Calm Calm 3.4 mph5.5 kmh 30.20 in1022.7 mb 0.00 in0.0 mm 0.00 in0.0 mm 0.16 in4.1 mm
10:46 PM 69.5°F20.8°C 65.5°F18.6°C 87% Calm Calm 3.4 mph5.5 kmh 30.20 in1022.7 mb 0.00 in0.0 mm 0.00 in0.0 mm 0.16 in4.1 mm
10:48 PM 69.4°F20.8°C 65.4°F18.6°C 87% 2.0 mph NE3.2 kmh NE 3.4 mph5.5 kmh 30.20 in1022.7 mb 0.00 in0.0 mm 0.00 in0.0 mm 0.16 in4.1 mm
10:50 PM 69.4°F20.8°C 65.4°F18.6°C 87% 2.0 mph NE3.2 kmh NE 3.4 mph5.5 kmh 30.20 in1022.7 mb 0.00 in0.0 mm 0.00 in0.0 mm 0.16 in4.1 mm
10:52 PM 69.3°F20.7°C 65.3°F18.5°C 87% 3.0 mph NE4.8 kmh NE 6.8 mph10.9 kmh 30.20 in1022.7 mb 0.00 in0.0 mm 0.00 in0.0 mm 0.16 in4.1 mm
10:54 PM 69.3°F20.7°C 65.3°F18.5°C 87% 1.0 mph NE1.6 kmh NE 6.8 mph10.9 kmh 30.20 in1022.7 mb 0.00 in0.0 mm 0.00 in0.0 mm 0.16 in4.1 mm
10:56 PM 69.2°F20.7°C 65.2°F18.4°C 87% Calm Calm 6.8 mph10.9 kmh 30.20 in1022.7 mb 0.00 in0.0 mm 0.00 in0.0 mm 0.16 in4.1 mm
10:58 PM 69.2°F20.7°C 65.2°F18.4°C 87% 1.0 mph NNW1.6 kmh NNW 6.8 mph10.9 kmh 30.20 in1022.7 mb 0.00 in0.0 mm 0.00 in0.0 mm 0.16 in4.1 mm
11:00 PM 69.2°F20.7°C 65.2°F18.4°C 87% 2.0 mph NE3.2 kmh NE 6.8 mph10.9 kmh 30.20 in1022.7 mb 0.00 in0.0 mm 0.00 in0.0 mm 1.16 in29.5 mm
11:02 PM 69.1°F20.6°C 65.4°F18.6°C 88% Calm Calm 6.8 mph10.9 kmh 30.20 in1022.7 mb 0.00 in0.0 mm 0.00 in0.0 mm 1.16 in29.5 mm
11:04 PM 69.1°F20.6°C 65.4°F18.6°C 88% 1.0 mph NE1.6 kmh NE 6.8 mph10.9 kmh 30.20 in1022.7 mb 0.00 in0.0 mm 0.00 in0.0 mm 1.16 in29.5 mm
11:06 PM 69.0°F20.6°C 65.3°F18.5°C 88% 2.0 mph NNW3.2 kmh NNW 6.8 mph10.9 kmh 30.20 in1022.7 mb 0.00 in0.0 mm 0.00 in0.0 mm 1.16 in29.5 mm
11:08 PM 69.0°F20.6°C 65.3°F18.5°C 88% 1.0 mph NE1.6 kmh NE 6.8 mph10.9 kmh 30.20 in1022.7 mb 0.00 in0.0 mm 0.00 in0.0 mm 1.16 in29.5 mm
11:10 PM 68.9°F20.5°C 65.2°F18.4°C 88% 1.0 mph ENE1.6 kmh ENE 6.8 mph10.9 kmh 30.20 in1022.7 mb 0.00 in0.0 mm 0.00 in0.0 mm 1.16 in29.5 mm
11:12 PM 68.9°F20.5°C 65.2°F18.4°C 88% 2.0 mph NE3.2 kmh NE 3.4 mph5.5 kmh 30.20 in1022.7 mb 0.00 in0.0 mm 0.00 in0.0 mm 1.16 in29.5 mm
11:14 PM 68.9°F20.5°C 65.2°F18.4°C 88% 1.0 mph NE1.6 kmh NE 4.6 mph7.4 kmh 30.20 in1022.7 mb 0.00 in0.0 mm 0.00 in0.0 mm 1.16 in29.5 mm
11:16 PM 68.9°F20.5°C 65.2°F18.4°C 88% 2.0 mph NE3.2 kmh NE 4.6 mph7.4 kmh 30.20 in1022.7 mb 0.00 in0.0 mm 0.00 in0.0 mm 1.16 in29.5 mm
11:18 PM 68.8°F20.4°C 65.1°F18.4°C 88% 2.0 mph ENE3.2 kmh ENE 5.7 mph9.2 kmh 30.20 in1022.7 mb 0.00 in0.0 mm 0.00 in0.0 mm 1.16 in29.5 mm
11:20 PM 68.7°F20.4°C 65.0°F18.3°C 88% 1.0 mph ENE1.6 kmh ENE 5.7 mph9.2 kmh 30.20 in1022.7 mb 0.00 in0.0 mm 0.00 in0.0 mm 1.16 in29.5 mm
11:22 PM 68.7°F20.4°C 65.0°F18.3°C 88% 1.0 mph N1.6 kmh N 5.7 mph9.2 kmh 30.20 in1022.7 mb 0.00 in0.0 mm 0.00 in0.0 mm 1.16 in29.5 mm
11:24 PM 68.6°F20.3°C 64.9°F18.3°C 88% 1.0 mph NE1.6 kmh NE 6.8 mph10.9 kmh 30.20 in1022.7 mb 0.00 in0.0 mm 0.00 in0.0 mm 1.16 in29.5 mm
11:26 PM 68.6°F20.3°C 64.9°F18.3°C 88% 2.0 mph ENE3.2 kmh ENE 6.8 mph10.9 kmh 30.20 in1022.7 mb 0.00 in0.0 mm 0.00 in0.0 mm 1.16 in29.5 mm
11:28 PM 68.6°F20.3°C 65.2°F18.4°C 89% 2.0 mph NE3.2 kmh NE 6.8 mph10.9 kmh 30.20 in1022.7 mb 0.00 in0.0 mm 0.00 in0.0 mm 1.16 in29.5 mm
11:30 PM 68.5°F20.3°C 65.1°F18.4°C 89% 1.0 mph E1.6 kmh E 6.8 mph10.9 kmh 30.20 in1022.7 mb 0.00 in0.0 mm 0.00 in0.0 mm 1.16 in29.5 mm
11:32 PM 68.5°F20.3°C 65.1°F18.4°C 89% 3.0 mph ENE4.8 kmh ENE 6.8 mph10.9 kmh 30.20 in1022.7 mb 0.00 in0.0 mm 0.00 in0.0 mm 1.16 in29.5 mm
11:34 PM 68.5°F20.3°C 65.1°F18.4°C 89% 2.0 mph NE3.2 kmh NE 10.3 mph16.6 kmh 30.20 in1022.7 mb 0.00 in0.0 mm 0.00 in0.0 mm 1.16 in29.5 mm
11:36 PM 68.4°F20.2°C 65.0°F18.3°C 89% Calm Calm 10.3 mph16.6 kmh 30.20 in1022.7 mb 0.00 in0.0 mm 0.00 in0.0 mm 1.16 in29.5 mm
11:38 PM 68.4°F20.2°C 65.0°F18.3°C 89% 1.0 mph N1.6 kmh N 10.3 mph16.6 kmh 30.20 in1022.7 mb 0.00 in0.0 mm 0.00 in0.0 mm 1.16 in29.5 mm
11:40 PM 68.3°F20.2°C 64.9°F18.3°C 89% 1.0 mph NE1.6 kmh NE 10.3 mph16.6 kmh 30.20 in1022.7 mb 0.00 in0.0 mm 0.00 in0.0 mm 1.16 in29.5 mm
11:42 PM 68.3°F20.2°C 64.9°F18.3°C 89% 1.0 mph NNE1.6 kmh NNE 10.3 mph16.6 kmh 30.20 in1022.7 mb 0.00 in0.0 mm 0.00 in0.0 mm 1.16 in29.5 mm
11:44 PM 68.3°F20.2°C 64.9°F18.3°C 89% 2.0 mph ENE3.2 kmh ENE 10.3 mph16.6 kmh 30.20 in1022.7 mb 0.00 in0.0 mm 0.00 in0.0 mm 1.16 in29.5 mm
11:46 PM 68.3°F20.2°C 64.9°F18.3°C 89% 1.0 mph NE1.6 kmh NE 10.3 mph16.6 kmh 30.20 in1022.7 mb 0.00 in0.0 mm 0.00 in0.0 mm 1.16 in29.5 mm
11:48 PM 68.2°F20.1°C 64.8°F18.2°C 89% 4.0 mph NE6.4 kmh NE 10.3 mph16.6 kmh 30.20 in1022.7 mb 0.00 in0.0 mm 0.00 in0.0 mm 1.16 in29.5 mm
11:50 PM 68.1°F20.1°C 64.7°F18.2°C 89% 1.0 mph E1.6 kmh E 10.3 mph16.6 kmh 30.20 in1022.7 mb 0.00 in0.0 mm 0.00 in0.0 mm 1.16 in29.5 mm
11:52 PM 68.1°F20.1°C 64.7°F18.2°C 89% 2.0 mph NE3.2 kmh NE 10.3 mph16.6 kmh 30.20 in1022.7 mb 0.00 in0.0 mm 0.00 in0.0 mm 1.16 in29.5 mm
11:54 PM 68.0°F20.0°C 64.6°F18.1°C 89% Calm Calm 4.6 mph7.4 kmh 30.20 in1022.7 mb 0.00 in0.0 mm 0.00 in0.0 mm 1.16 in29.5 mm
11:56 PM 68.0°F20.0°C 64.6°F18.1°C 89% 1.0 mph NNE1.6 kmh NNE 4.6 mph7.4 kmh 30.20 in1022.7 mb 0.00 in0.0 mm 0.00 in0.0 mm 1.16 in29.5 mm
11:58 PM 67.9°F19.9°C 64.9°F18.3°C 90% 1.0 mph NNE1.6 kmh NNE 4.6 mph7.4 kmh 30.20 in1022.7 mb 0.00 in0.0 mm 0.00 in0.0 mm 1.16 in29.5 mm